Flight Track Log - Related Links

Times and Time Zones

All times are in EDT time to prevent confusion due to time zone crossing. See the DAL268 flight status page for this flight to view local times or setup timezone preferences in your user account.

Time Position Orientation Groundspeed Altitude Reporting Facility
EDT Latitude Longitude Course Direction KTS MPH feet Rate Location/Type
Sat 12:32:32 AM 40.6290 -73.7830 North  Level FlightAware ADS-B
Sat 12:36:00 AM 40.5325 -73.4642 114° Southeast  Level FlightAware Approximate
Sat 12:37:00 AM 40.4792 -73.2916 123° Southeast  Level FlightAware Approximate
Sat 12:38:00 AM 40.4226 -73.1192 119° Southeast  Level FlightAware Approximate
Sat 12:47:50 AM 40.6320 -73.7750 213° Southwest 120 138  Level FlightAware ADS-B
Sat 12:48:12 AM 40.6190 -73.7850 210° Southwest 179 206 100 1,143 Climbing FlightAware ADS-B
Sat 12:48:32 AM 40.6050 -73.7960 211° Southwest 178 205 800 1,867 Climbing FlightAware ADS-B
Sat 12:48:57 AM 40.5850 -73.8100 208° Southwest 189 217 1,500 1,459 Climbing FlightAware ADS-B
Sat 12:49:09 AM 40.5750 -73.8140 197° South 208 239 1,700 1,091 Climbing FlightAware ADS-B
Sat 12:49:41 AM 40.5416 -73.7990 161° South 262 302 2,300 1,000 Climbing FlightAware ADS-B
Sat 12:49:45 AM 40.5381 -73.7947 137° Southeast 265 305 2,300 1,043 Level FlightAware ADS-B
Sat 12:50:04 AM 40.5254 -73.7681 122° Southeast 267 307 2,700 1,500 Climbing FlightAware ADS-B
Sat 12:50:33 AM 40.5214 -73.7173 96° East 304 350 3,500 1,882 Climbing FlightAware ADS-B
Sat 12:50:55 AM 40.5281 -73.6751 78° East 320 368 4,300 2,100 Climbing FlightAware ADS-B
Sat 12:51:13 AM 40.5340 -73.6401 77° East 329 379 4,900 2,057 Climbing FlightAware ADS-B
Sat 12:51:30 AM 40.5398 -73.6068 77° East 328 377 5,500 2,438 Climbing FlightAware ADS-B
Sat 12:51:45 AM 40.5447 -73.5769 78° East 335 386 6,200 2,889 Climbing FlightAware ADS-B
Sat 12:51:57 AM 40.5486 -73.5531 78° East 333 383 6,800 3,103 Climbing FlightAware ADS-B
Sat 12:52:14 AM 40.5542 -73.5200 77° East 331 381 7,700 2,727 Climbing FlightAware ADS-B
Sat 12:52:30 AM 40.5593 -73.4884 78° East 336 387 8,300 2,160 Climbing FlightAware ADS-B
Sat 12:52:39 AM 40.5618 -73.4699 80° East 343 395 8,600 1,875 Climbing FlightAware ADS-B
Sat 12:52:46 AM 40.5625 -73.4555 86° East 345 397 8,800 2,143 Climbing FlightAware ADS-B
Sat 12:52:53 AM 40.5625 -73.4402 90° East 347 399 9,100 2,400 Climbing FlightAware ADS-B
Sat 12:53:01 AM 40.5613 -73.4246 96° East 347 399 9,400 2,308 Climbing FlightAware ADS-B
Sat 12:53:06 AM 40.5595 -73.4139 102° East 346 398 9,600 2,400 Climbing FlightAware ADS-B
Sat 12:53:11 AM 40.5575 -73.4035 104° East 345 397 9,800 2,182 Climbing FlightAware ADS-B
Sat 12:53:17 AM 40.5538 -73.3916 112° Southeast 345 397 10,000 1,765 Climbing FlightAware ADS-B
Sat 12:53:28 AM 40.5452 -73.3715 119° Southeast 351 404 10,300 1,161 Climbing FlightAware ADS-B
Sat 12:53:48 AM 40.5268 -73.3346 123° Southeast 373 429 10,600 1,418 Climbing FlightAware ADS-B
Sat 12:54:23 AM 40.4972 -73.2638 119° Southeast 396 456 11,600 1,455 Climbing FlightAware ADS-B
Sat 12:54:54 AM 40.4694 -73.1935 117° Southeast 422 486 12,200 1,250 Climbing FlightAware ADS-B
Sat 12:55:11 AM 40.4545 -73.1560 118° Southeast 434 499 12,600 1,655 Climbing FlightAware ADS-B
Sat 12:55:23 AM 40.4456 -73.1257 111° Southeast 442 509 13,000 1,909 Climbing FlightAware ADS-B
Sat 12:55:33 AM 40.4413 -73.0984 102° East 449 517 13,300 1,714 Climbing FlightAware ADS-B
Sat 12:55:37 AM 40.4406 -73.0892 96° East 451 519 13,400 1,895 Climbing FlightAware ADS-B
Sat 12:55:52 AM 40.4421 -73.0464 87° East 457 526 13,900 1,929 Climbing FlightAware ADS-B
Sat 12:56:05 AM 40.4489 -73.0134 75° East 460 529 14,300 2,000 Climbing FlightAware ADS-B
Sat 12:56:13 AM 40.4565 -72.9910 66° East 461 531 14,600 2,100 Climbing FlightAware ADS-B
Sat 12:56:45 AM 40.4891 -72.9125 61° Northeast 469 540 15,700 1,935 Climbing FlightAware ADS-B
Sat 12:57:15 AM 40.5232 -72.8367 59° Northeast 477 549 16,600 2,200 Climbing FlightAware ADS-B
Sat 12:57:45 AM 40.5572 -72.7622 59° Northeast 476 548 17,900 1,967 Climbing FlightAware ADS-B
Sat 12:58:16 AM 40.5900 -72.6848 61° Northeast 488 562 18,600 1,895 Climbing FlightAware ADS-B
Sat 12:58:42 AM 40.6169 -72.6141 63° Northeast 484 557 19,700 1,862 Climbing FlightAware ADS-B
Sat 12:59:14 AM 40.6473 -72.5272 65° Northeast 497 572 20,400 1,629 Climbing FlightAware ADS-B
Sat 12:59:52 AM 40.6835 -72.4233 65° Northeast 500 575 21,600 1,600 Climbing FlightAware ADS-B
Sat 01:00:29 AM 40.7208 -72.3204 64° Northeast 500 575 22,400 1,412 Climbing FlightAware ADS-B
Sat 01:01:00 AM 40.7527 -72.2341 64° Northeast 516 594 23,200 1,333 Climbing FlightAware ADS-B
Sat 01:01:32 AM 40.7860 -72.1407 65° Northeast 527 606 23,800 1,200 Climbing FlightAware ADS-B
Sat 01:02:05 AM 40.8190 -72.0440 66° East 535 616 24,500 1,043 Climbing FlightAware ADS-B
Sat 01:02:41 AM 40.8570 -71.9350 65° Northeast 547 629 25,000 1,048 Climbing FlightAware ADS-B
Sat 01:03:08 AM 40.8861 -71.8530 65° Northeast 551 634 25,600 636 Climbing FlightAware ADS-B
Sat 01:03:47 AM 40.9230 -71.7490 65° Northeast 554 638 25,700 652 Climbing FlightAware ADS-B
Sat 01:04:40 AM 40.9810 -71.5820 65° Northeast 568 654 26,600 1,407 Climbing FlightAware ADS-B
Sat 01:05:08 AM 41.0185 -71.4770 65° Northeast 579 666 27,600 1,367 Climbing FlightAware ADS-B
Sat 01:05:59 AM 41.0760 -71.3100 65° Northeast 587 676 28,400 1,111 Climbing FlightAware ADS-B
Sat 01:06:29 AM 41.1050 -71.2250 66° East 580 667 29,100 1,662 Climbing FlightAware ADS-B
Sat 01:07:04 AM 41.1490 -71.0980 65° Northeast 575 662 30,200 1,520 Climbing FlightAware ADS-B
Sat 01:07:44 AM 41.1940 -70.9690 65° Northeast 573 659 31,000 720 Climbing FlightAware ADS-B
Sat 01:08:19 AM 41.2320 -70.8570 66° East 575 662 31,100 79 Climbing FlightAware ADS-B
Sat 01:09:00 AM 41.2770 -70.7260 65° Northeast 568 654 31,100  Level FlightAware ADS-B
Sat 01:09:31 AM 41.3060 -70.6380 66° East 568 654 31,100  Level FlightAware ADS-B
Sat 01:10:07 AM 41.3390 -70.5400 66° East 568 654 31,100  Level FlightAware ADS-B
Sat 01:10:43 AM 41.3710 -70.4430 66° East 568 654 31,100  Level FlightAware ADS-B
Sat 01:11:21 AM 41.4060 -70.3390 66° East 568 654 31,100  Level FlightAware ADS-B
Sat 01:11:57 AM 41.4380 -70.2410 66° East 568 654 31,100  Level FlightAware ADS-B
Sat 01:12:32 AM 41.4700 -70.1460 66° East 568 654 31,100  Level FlightAware ADS-B
Sat 01:13:09 AM 41.5040 -70.0450 66° East 568 654 31,100  Level FlightAware ADS-B
Sat 01:13:45 AM 41.5370 -69.9470 66° East 568 654 31,100  Level FlightAware ADS-B
Sat 01:14:21 AM 41.5690 -69.8490 66° East 568 654 31,100  Level FlightAware ADS-B
Sat 01:14:57 AM 41.6020 -69.7510 66° East 568 654 31,100  Level FlightAware ADS-B
Sat 01:15:33 AM 41.6350 -69.6520 66° East 568 654 31,100  Level FlightAware ADS-B
Sat 01:16:07 AM 41.6650 -69.5600 66° East 568 654 31,100  Level FlightAware ADS-B
Sat 01:16:42 AM 41.6970 -69.4640 66° East 568 654 31,100  Level FlightAware ADS-B
Sat 01:17:18 AM 41.7300 -69.3650 66° East 568 654 31,100  Level FlightAware ADS-B
Sat 01:18:02 AM 41.8550 -68.9580 67° East 588 677 31,100  Level FlightAware ADS-B
Sat 01:18:38 AM 41.8870 -68.8560 67° East 588 677 31,100  Level FlightAware ADS-B
Sat 01:19:16 AM 41.9380 -68.6930 67° East 586 674 31,100  Level FlightAware ADS-B
Sat 01:19:47 AM 41.9670 -68.6000 67° East 587 676 31,100  Level FlightAware ADS-B
Sat 01:20:26 AM 42.0100 -68.4630 67° East 587 676 31,100  Level FlightAware ADS-B
Sat 01:21:11 AM 42.0560 -68.3180 67° East 587 676 31,100  Level FlightAware ADS-B
Sat 01:21:46 AM 42.0940 -68.1940 68° East 586 674 31,100  Level FlightAware ADS-B
Sat 01:22:19 AM 42.1250 -68.0940 67° East 586 674 31,100  Level FlightAware ADS-B
Sat 01:22:55 AM 42.1570 -67.9910 67° East 586 674 31,100  Level FlightAware ADS-B
Sat 01:23:37 AM 42.2100 -67.8160 68° East 584 672 31,100  Level FlightAware ADS-B
Sat 01:24:07 AM 42.2410 -67.7160 67° East 581 669 31,100  Level FlightAware ADS-B
Sat 01:24:44 AM 42.2720 -67.6100 68° East 581 669 31,100  Level FlightAware ADS-B
Sat 01:25:20 AM 42.3030 -67.5070 68° East 581 669 31,100  Level FlightAware ADS-B
Sat 01:25:56 AM 42.3340 -67.4040 68° East 581 669 31,100  Level FlightAware ADS-B
Sat 01:26:32 AM 42.3650 -67.3010 68° East 581 669 31,100  Level FlightAware ADS-B
Sat 01:27:08 AM 42.3960 -67.1980 68° East 581 669 31,100  Level FlightAware ADS-B
Sat 01:28:22 AM 42.4980 -66.8510 68° East 31,100  Level FlightAware ADS-B
Sat 01:29:08 AM 42.5350 -66.7230 69° East 579 666 31,100  Level FlightAware ADS-B
Sat 01:29:40 AM 42.5700 -66.6070 68° East 578 665 31,100  Level FlightAware ADS-B
Sat 01:30:24 AM 42.6140 -66.4590 68° East 578 665 31,100  Level FlightAware ADS-B
Sat 01:31:00 AM 42.6440 -66.3560 68° East 578 665 31,100  Level FlightAware ADS-B
Sat 01:31:48 AM 42.6930 -66.1800 69° East 576 663 31,100  Level FlightAware ADS-B
Sat 01:32:21 AM 42.7250 -66.0640 69° East 575 662 31,100  Level FlightAware ADS-B
Sat 01:32:56 AM 42.7600 -65.9360 70° East 575 662 31,100  Level FlightAware ADS-B
Sat 01:33:30 AM 42.7920 -65.8210 69° East 575 662 31,100  Level FlightAware ADS-B
Sat 01:34:17 AM 42.8300 -65.6810 70° East 575 662 31,100  Level FlightAware ADS-B
Sat 01:34:53 AM 42.8580 -65.5760 70° East 575 662 31,100  Level FlightAware ADS-B
Sat 01:35:33 AM 42.9060 -65.4090 69° East 574 661 31,100  Level FlightAware ADS-B
Sat 01:36:16 AM 42.9450 -65.2690 69° East 574 661 31,100  Level FlightAware ADS-B
Sat 01:36:44 AM 42.9740 -65.1610 70° East 568 654 31,100  Level FlightAware ADS-B
Sat 01:37:30 AM 43.0170 -65.0030 70° East 565 650 31,100  Level FlightAware ADS-B
Sat 01:38:00 AM 43.0390 -64.9200 70° East 564 649 31,100  Level FlightAware ADS-B
Sat 01:38:40 AM 43.0690 -64.8060 70° East 564 649 31,100  Level FlightAware ADS-B
Sat 01:39:15 AM 43.1100 -64.6560 69° East 565 650 31,100  Level FlightAware ADS-B
Sat 01:39:51 AM 43.1410 -64.5380 70° East 566 651 31,100  Level FlightAware ADS-B
Sat 01:39:56 AM 43.1450 -64.5240 69° East 566 651 31,100  Level FlightAware ADS-B
Sat 01:41:26 AM 43.2250 -64.2210 70° East 567 652 31,100  Level FlightAware ADS-B
Sat 01:42:00 AM 43.2580 -64.0970 70° East 568 654 31,100  Level FlightAware ADS-B
Sat 01:42:35 AM 43.2880 -63.9800 71° East 568 654 31,100  Level FlightAware ADS-B
Sat 01:43:05 AM 43.3160 -63.8740 70° East 568 654 31,100  Level FlightAware ADS-B
Sat 01:43:45 AM 43.3510 -63.7400 70° East 568 654 31,100  Level FlightAware ADS-B
Sat 01:44:20 AM 43.3800 -63.6260 71° East 568 654 31,100  Level FlightAware ADS-B
Sat 01:44:50 AM 43.4070 -63.5200 71° East 567 652 31,100  Level FlightAware ADS-B
Sat 01:45:35 AM 43.4450 -63.3730 70° East 568 654 31,100  Level FlightAware ADS-B
Sat 01:46:25 AM 43.4880 -63.2040 71° East 566 651 31,100  Level FlightAware ADS-B
Sat 01:46:55 AM 43.5160 -63.0930 71° East 565 650 31,100  Level FlightAware ADS-B
Sat 01:47:45 AM 43.5590 -62.9230 71° East 567 652 31,100  Level FlightAware ADS-B
Sat 01:48:20 AM 43.5850 -62.8180 71° East 567 652 31,100  Level FlightAware ADS-B
Sat 01:49:05 AM 43.6230 -62.6650 71° East 567 652 31,100  Level FlightAware ADS-B
Sat 01:49:46 AM 43.6580 -62.5210 71° East 567 652 31,100  Level FlightAware ADS-B
Sat 01:50:31 AM 43.6980 -62.3580 71° East 567 652 31,100  Level FlightAware ADS-B
Sat 01:51:06 AM 43.7270 -62.2420 71° East 566 651 31,100  Level FlightAware ADS-B
Sat 01:51:46 AM 43.7610 -62.0980 72° East 566 651 31,100  Level FlightAware ADS-B
Sat 01:52:25 AM 43.7880 -61.9830 72° East 566 651 31,100  Level FlightAware ADS-B
Sat 01:53:10 AM 43.8250 -61.8310 71° East 563 648 31,100  Level FlightAware ADS-B
Sat 01:53:46 AM 43.8500 -61.7260 72° East 563 648 31,100  Level FlightAware ADS-B
Sat 01:54:22 AM 43.8740 -61.6210 72° East 563 648 31,100  Level FlightAware ADS-B
Sat 01:54:59 AM 43.9000 -61.5130 71° East 563 648 31,100  Level FlightAware ADS-B
Sat 01:55:35 AM 43.9240 -61.4070 73° East 563 648 31,100  Level FlightAware ADS-B
Sat 01:56:22 AM 43.9560 -61.2700 72° East 563 648 31,100  Level FlightAware ADS-B
Sat 01:56:58 AM 43.9810 -61.1650 72° East 563 648 31,100  Level FlightAware ADS-B
Sat 01:57:34 AM 44.0050 -61.0590 72° East 563 648 31,100  Level FlightAware ADS-B
Sat 01:58:10 AM 44.0300 -60.9540 72° East 563 648 31,100  Level FlightAware ADS-B
Sat 01:58:46 AM 44.0550 -60.8480 72° East 563 648 31,100  Level FlightAware ADS-B
Sat 01:59:22 AM 44.0790 -60.7430 72° East 563 648 31,100  Level FlightAware ADS-B
Sat 01:59:58 AM 44.1040 -60.6370 72° East 563 648 31,100  Level FlightAware ADS-B
Sat 02:00:32 AM 44.1270 -60.5380 72° East 563 648 31,100  Level FlightAware ADS-B
Sat 02:01:08 AM 44.1520 -60.4320 72° East 563 648 31,100  Level FlightAware ADS-B
Sat 02:01:44 AM 44.1760 -60.3260 72° East 563 648 31,100  Level FlightAware ADS-B
Sat 02:02:19 AM 44.2680 -59.8860 74° East 585 673 31,100  Level FlightAware ADS-B
Sat 02:02:52 AM 44.2900 -59.7840 73° East 586 674 31,100  Level FlightAware ADS-B
Sat 02:03:26 AM 44.3130 -59.6800 73° East 586 674 31,100  Level FlightAware ADS-B
Sat 02:04:02 AM 44.3370 -59.5690 73° East 586 674 31,100  Level FlightAware ADS-B
Sat 02:04:38 AM 44.3610 -59.4580 73° East 586 674 31,100  Level FlightAware ADS-B
Sat 02:05:13 AM 44.4030 -59.2570 74° East 576 663 31,100  Level FlightAware ADS-B
Sat 02:05:49 AM 44.4290 -59.1330 74° East 574 661 31,100  Level FlightAware ADS-B
Sat 02:06:25 AM 44.4560 -59.0050 73° East 572 658 31,100  Level FlightAware ADS-B
Sat 02:06:57 AM 44.4790 -58.8910 74° East 571 657 31,100  Level FlightAware ADS-B
Sat 02:07:35 AM 44.5080 -58.7520 74° East 570 656 31,100  Level FlightAware ADS-B
Sat 02:08:07 AM 44.5320 -58.6380 74° East 569 655 31,100  Level FlightAware ADS-B
Sat 02:08:43 AM 44.5570 -58.5150 74° East 566 651 31,100  Level FlightAware ADS-B
Sat 02:09:19 AM 44.5830 -58.3870 74° East 566 651 31,100  Level FlightAware ADS-B
Sat 02:09:53 AM 44.6060 -58.2680 75° East 565 650 31,100  Level FlightAware ADS-B
Sat 02:10:29 AM 44.6320 -58.1390 74° East 565 650 31,100  Level FlightAware ADS-B
Sat 02:11:05 AM 44.6570 -58.0120 74° East 564 649 31,100  Level FlightAware ADS-B
Sat 02:11:38 AM 44.6800 -57.8990 74° East 562 647 31,100  Level FlightAware ADS-B
Sat 02:12:14 AM 44.7030 -57.7780 75° East 561 646 31,100  Level FlightAware ADS-B
Sat 02:12:52 AM 44.7260 -57.6650 74° East 561 646 31,100  Level FlightAware ADS-B
Sat 02:13:28 AM 44.7480 -57.5570 74° East 561 646 31,100  Level FlightAware ADS-B
Sat 02:14:04 AM 44.7700 -57.4500 74° East 561 646 31,100  Level FlightAware ADS-B
Sat 02:14:40 AM 44.7920 -57.3420 74° East 561 646 31,100  Level FlightAware ADS-B
Sat 02:15:17 AM 44.8140 -57.2320 74° East 561 646 31,100  Level FlightAware ADS-B
Sat 02:15:53 AM 44.8490 -57.0170 77° East 558 642 31,100  Level FlightAware ADS-B
Sat 02:16:29 AM 44.8700 -56.9100 74° East 558 642 31,100  Level FlightAware ADS-B
Sat 02:17:05 AM 44.8900 -56.8020 75° East 558 642 31,100  Level FlightAware ADS-B
Sat 02:17:58 AM 44.9310 -56.5770 75° East 555 639 31,100  Level FlightAware ADS-B
Sat 02:18:34 AM 44.9520 -56.4700 74° East 555 639 31,100  Level FlightAware ADS-B
Sat 02:19:10 AM 44.9720 -56.3620 75° East 555 639 31,100  Level FlightAware ADS-B
Sat 02:19:47 AM 44.9930 -56.2520 75° East 555 639 31,100  Level FlightAware ADS-B
Sat 02:20:23 AM 45.0130 -56.1450 75° East 555 639 31,100  Level FlightAware ADS-B
Sat 02:20:59 AM 45.0330 -56.0370 75° East 555 639 31,100  Level FlightAware ADS-B
Sat 02:21:35 AM 45.0540 -55.9300 74° East 555 639 31,100  Level FlightAware ADS-B
Sat 02:22:11 AM 45.0740 -55.8220 75° East 555 639 31,100  Level FlightAware ADS-B
Sat 02:22:49 AM 45.0950 -55.7090 75° East 555 639 31,100  Level FlightAware ADS-B
Sat 02:23:25 AM 45.1160 -55.6010 75° East 555 639 31,100  Level FlightAware ADS-B
Sat 02:24:01 AM 45.1360 -55.4940 75° East 555 639 31,100  Level FlightAware ADS-B
Sat 02:24:38 AM 45.1570 -55.3830 75° East 555 639 31,100  Level FlightAware ADS-B
Sat 02:25:14 AM 45.1770 -55.2760 75° East 555 639 31,100  Level FlightAware ADS-B
Sat 02:25:51 AM 45.1980 -55.1650 75° East 555 639 31,100  Level FlightAware ADS-B
Sat 02:26:27 AM 45.2190 -55.0570 75° East 555 639 31,100  Level FlightAware ADS-B
Sat 02:27:04 AM 45.2390 -54.9460 76° East 555 639 31,100 1,519 Level FlightAware ADS-B
Sat 02:27:46 AM 45.3120 -54.4960 77° East 552 635 33,100 1,622 Climbing FlightAware ADS-B
Sat 02:28:18 AM 45.3310 -54.3870 76° East 551 634 33,100  Level FlightAware ADS-B
Sat 02:28:56 AM 45.3550 -54.2510 76° East 551 634 33,100  Level FlightAware ADS-B
Sat 02:29:33 AM 45.3750 -54.1370 76° East 551 634 33,100  Level FlightAware ADS-B
Sat 02:30:09 AM 45.3930 -54.0300 76° East 551 634 33,100  Level FlightAware ADS-B
Sat 02:30:45 AM 45.4120 -53.9220 76° East 551 634 33,100  Level FlightAware ADS-B
Sat 02:31:21 AM 45.4310 -53.8140 76° East 551 634 33,100  Level FlightAware ADS-B
Sat 02:31:57 AM 45.4500 -53.7060 76° East 551 634 33,100  Level FlightAware ADS-B
Sat 02:32:33 AM 45.4690 -53.5980 76° East 551 634 33,100  Level FlightAware ADS-B
Sat 02:33:09 AM 45.4880 -53.4900 76° East 551 634 33,100  Level FlightAware ADS-B
Sat 02:33:46 AM 45.5070 -53.3790 76° East 551 634 33,100  Level FlightAware ADS-B
Sat 02:34:32 AM 45.5310 -53.2410 76° East 551 634 33,100  Level FlightAware ADS-B
Sat 02:35:08 AM 45.5500 -53.1330 76° East 551 634 33,100  Level FlightAware ADS-B
Sat 02:35:44 AM 45.5690 -53.0250 76° East 551 634 33,100  Level FlightAware ADS-B
Sat 02:36:20 AM 45.5880 -52.9170 76° East 551 634 33,100  Level FlightAware ADS-B
Sat 02:36:57 AM 45.6070 -52.8060 76° East 551 634 33,100  Level FlightAware ADS-B
Sat 02:37:33 AM 45.6260 -52.6980 76° East 551 634 33,100  Level FlightAware ADS-B
Sat 02:38:09 AM 45.6450 -52.5890 76° East 551 634 33,100  Level FlightAware ADS-B
Sat 02:38:46 AM 45.6640 -52.4780 76° East 551 634 33,100  Level FlightAware ADS-B
Sat 02:39:50 AM 45.7167 -51.9333 76° East 540 621 33,100  Level Gander Center
Sat 02:40:50 AM 45.7333 -51.7000 84° East 550 633 33,100  Level Gander Center
Sat 02:41:50 AM 45.7667 -51.5167 75° East 550 633 33,100  Level Gander Center
Sat 02:42:50 AM 45.8000 -51.2833 78° East 550 633 33,100  Level Gander Center
Sat 02:43:50 AM 45.8333 -51.0667 77° East 550 633 33,100  Level Gander Center
Sat 02:44:50 AM 45.8667 -50.8667 76° East 540 621 33,100  Level Gander Center
Sat 02:45:50 AM 45.9000 -50.6500 77° East 550 633 33,100  Level Gander Center
Sat 02:46:50 AM 45.9167 -50.4500 83° East 550 633 33,100  Level Gander Center
Sat 02:47:50 AM 45.9500 -50.2500 76° East 540 621 33,100  Level Gander Center
Sat 02:48:50 AM 45.9833 -50.0167 78° East 540 621 33,100  Level Gander Center
Sat 02:49:50 AM 46.0000 -49.8000 84° East 550 633 33,100 -32 Level Gander Center
Sat 02:51:00 AM 46.0095 -49.5506 87° East  Level FlightAware Approximate
Sat 02:52:00 AM 46.0000 -50.0000 86° East 543 625 33,000  Level ETMS Enhanced Traffic Management System
Sat 02:58:00 AM 46.0549 -48.0526 87° East  Level FlightAware Approximate
Sat 02:59:00 AM 46.0742 -47.8286 88° East 543 625 33,000  Level FlightAware Transoceanic
Sat 03:00:00 AM 46.0794 -47.6112 88° East 543 625 33,000  Level FlightAware Transoceanic
Sat 03:01:00 AM 46.0842 -47.3937 88° East 543 625 33,000  Level FlightAware Transoceanic
Sat 03:02:00 AM 46.0885 -47.1762 88° East 543 625 33,000  Level FlightAware Transoceanic
Sat 03:03:00 AM 46.0924 -46.9587 89° East 543 625 33,000  Level FlightAware Transoceanic
Sat 03:04:00 AM 46.0959 -46.7411 89° East 543 625 33,000  Level FlightAware Transoceanic
Sat 03:05:00 AM 46.0990 -46.5236 89° East 543 625 33,000  Level FlightAware Transoceanic
Sat 03:06:00 AM 46.1017 -46.3060 89° East 543 625 33,000  Level FlightAware Transoceanic
Sat 03:07:00 AM 46.1040 -46.0883 89° East 543 625 33,000  Level FlightAware Transoceanic
Sat 03:08:00 AM 46.1058 -45.8707 89° East 543 625 33,000  Level FlightAware Transoceanic
Sat 03:09:00 AM 46.1073 -45.6530 90° East 543 625 33,000  Level FlightAware Transoceanic
Sat 03:10:00 AM 46.1083 -45.4353 90° East 543 625 33,000  Level FlightAware Transoceanic
Sat 03:11:00 AM 46.1089 -45.2177 90° East 543 625 33,000  Level FlightAware Transoceanic
Sat 03:12:00 AM 46.1091 -45.0000 90° East 543 625 33,000  Level FlightAware Transoceanic
Sat 03:13:00 AM 46.1089 -44.7823 90° East 543 625 33,000  Level FlightAware Transoceanic
Sat 03:14:00 AM 46.1083 -44.5647 90° East 543 625 33,000  Level FlightAware Transoceanic
Sat 03:15:00 AM 46.1073 -44.3470 90° East 543 625 33,000  Level FlightAware Transoceanic
Sat 03:16:00 AM 46.1058 -44.1293 91° East 543 625 33,000  Level FlightAware Transoceanic
Sat 03:17:00 AM 46.1040 -43.9117 91° East 543 625 33,000  Level FlightAware Transoceanic
Sat 03:18:00 AM 46.1017 -43.6940 91° East 543 625 33,000  Level FlightAware Transoceanic
Sat 03:19:00 AM 46.0990 -43.4764 91° East 543 625 33,000  Level FlightAware Transoceanic
Sat 03:20:00 AM 46.0959 -43.2589 91° East 543 625 33,000  Level FlightAware Transoceanic
Sat 03:21:00 AM 46.0924 -43.0413 91° East 543 625 33,000  Level FlightAware Transoceanic
Sat 03:22:00 AM 46.0885 -42.8238 92° East 543 625 33,000  Level FlightAware Transoceanic
Sat 03:23:00 AM 46.0842 -42.6063 92° East 543 625 33,000  Level FlightAware Transoceanic
Sat 03:24:00 AM 46.0794 -42.3888 92° East 543 625 33,000  Level FlightAware Transoceanic
Sat 03:25:00 AM 46.0742 -42.1714 92° East 543 625 33,000  Level FlightAware Transoceanic
Sat 03:26:00 AM 46.0687 -41.9540 92° East 543 625 33,000  Level FlightAware Transoceanic
Sat 03:27:00 AM 46.0627 -41.7367 92° East 543 625 33,000  Level FlightAware Transoceanic
Sat 03:28:00 AM 46.0563 -41.5194 93° East 543 625 33,000  Level FlightAware Transoceanic
Sat 03:29:00 AM 46.0495 -41.3021 93° East 543 625 33,000  Level FlightAware Transoceanic
Sat 03:30:00 AM 46.0423 -41.0850 93° East 543 625 33,000  Level FlightAware Transoceanic
Sat 03:31:00 AM 46.0346 -40.8678 93° East 543 625 33,000  Level FlightAware Transoceanic
Sat 03:32:00 AM 46.0266 -40.6508 93° East 543 625 33,000  Level FlightAware Transoceanic
Sat 03:33:00 AM 46.0181 -40.4338 93° East 543 625 33,000  Level FlightAware Transoceanic
Sat 03:34:00 AM 46.0093 -40.2169 93° East 543 625 33,000  Level FlightAware Transoceanic
Sat 03:35:00 AM 46.0001 -40.0032 93° East  Level FlightAware Approximate
Sat 03:36:00 AM 45.9905 -39.7896 94° East  Level FlightAware Approximate
Sat 03:37:00 AM 46.0088 -39.7926 86° East  Level FlightAware Approximate
Sat 03:37:00 AM 46.0000 -40.0000 86° East 555 639 33,000  Level ETMS Enhanced Traffic Management System
Sat 03:38:00 AM 46.0174 -39.5788 87° East  Level FlightAware Approximate
Sat 03:39:00 AM 46.0256 -39.3650 87° East  Level FlightAware Approximate
Sat 03:40:00 AM 46.0334 -39.1511 87° East  Level FlightAware Approximate
Sat 03:41:00 AM 46.0408 -38.9371 87° East  Level FlightAware Approximate
Sat 03:42:00 AM 46.0479 -38.7231 87° East  Level FlightAware Approximate
Sat 03:43:00 AM 46.0638 -38.2247 88° East 555 639 33,000  Level FlightAware Transoceanic
Sat 03:44:00 AM 46.0698 -38.0025 88° East 555 639 33,000  Level FlightAware Transoceanic
Sat 03:45:00 AM 46.0754 -37.7803 88° East 555 639 33,000  Level FlightAware Transoceanic
Sat 03:46:00 AM 46.0806 -37.5580 88° East 555 639 33,000  Level FlightAware Transoceanic
Sat 03:47:00 AM 46.0854 -37.3357 88° East 555 639 33,000  Level FlightAware Transoceanic
Sat 03:48:00 AM 46.0897 -37.1134 88° East 555 639 33,000  Level FlightAware Transoceanic
Sat 03:49:00 AM 46.0936 -36.8910 89° East 555 639 33,000  Level FlightAware Transoceanic
Sat 03:50:00 AM 46.0970 -36.6686 89° East 555 639 33,000  Level FlightAware Transoceanic
Sat 03:51:00 AM 46.1000 -36.4462 89° East 555 639 33,000  Level FlightAware Transoceanic
Sat 03:52:00 AM 46.1026 -36.2237 89° East 555 639 33,000  Level FlightAware Transoceanic
Sat 03:53:00 AM 46.1048 -36.0013 89° East 555 639 33,000  Level FlightAware Transoceanic
Sat 03:54:00 AM 46.1065 -35.7788 89° East 555 639 33,000  Level FlightAware Transoceanic
Sat 03:55:00 AM 46.1078 -35.5563 90° East 555 639 33,000  Level FlightAware Transoceanic
Sat 03:56:00 AM 46.1087 -35.3338 90° East 555 639 33,000  Level FlightAware Transoceanic
Sat 03:57:00 AM 46.1091 -35.1113 90° East 555 639 33,000  Level FlightAware Transoceanic
Sat 03:58:00 AM 46.1091 -34.8887 90° East 555 639 33,000  Level FlightAware Transoceanic
Sat 03:59:00 AM 46.1087 -34.6662 90° East 555 639 33,000  Level FlightAware Transoceanic
Sat 04:00:00 AM 46.1078 -34.4437 90° East 555 639 33,000  Level FlightAware Transoceanic
Sat 04:01:00 AM 46.1065 -34.2212 91° East 555 639 33,000  Level FlightAware Transoceanic
Sat 04:02:00 AM 46.1048 -33.9987 91° East 555 639 33,000  Level FlightAware Transoceanic
Sat 04:03:00 AM 46.1026 -33.7763 91° East 555 639 33,000  Level FlightAware Transoceanic
Sat 04:04:00 AM 46.1000 -33.5538 91° East 555 639 33,000  Level FlightAware Transoceanic
Sat 04:05:00 AM 46.0970 -33.3314 91° East 555 639 33,000  Level FlightAware Transoceanic
Sat 04:06:00 AM 46.0936 -33.1090 91° East 555 639 33,000  Level FlightAware Transoceanic
Sat 04:07:00 AM 46.0897 -32.8866 92° East 555 639 33,000  Level FlightAware Transoceanic
Sat 04:08:00 AM 46.0854 -32.6643 92° East 555 639 33,000  Level FlightAware Transoceanic
Sat 04:09:00 AM 46.0806 -32.4420 92° East 555 639 33,000  Level FlightAware Transoceanic
Sat 04:10:00 AM 46.0754 -32.2197 92° East 555 639 33,000  Level FlightAware Transoceanic
Sat 04:11:00 AM 46.0698 -31.9975 92° East 555 639 33,000  Level FlightAware Transoceanic
Sat 04:12:00 AM 46.0638 -31.7753 92° East 555 639 33,000  Level FlightAware Transoceanic
Sat 04:13:00 AM 46.0573 -31.5532 92° East 555 639 33,000  Level FlightAware Transoceanic
Sat 04:14:00 AM 46.0504 -31.3311 93° East 555 639 33,000  Level FlightAware Transoceanic
Sat 04:15:00 AM 46.0431 -31.1091 93° East 555 639 33,000  Level FlightAware Transoceanic
Sat 04:16:00 AM 46.0353 -30.8871 93° East 555 639 33,000  Level FlightAware Transoceanic
Sat 04:17:00 AM 46.0271 -30.6653 93° East 555 639 33,000  Level FlightAware Transoceanic
Sat 04:18:00 AM 46.0185 -30.4434 93° East 555 639 33,000  Level FlightAware Transoceanic
Sat 04:19:00 AM 46.0095 -30.2217 93° East 555 639 33,000  Level FlightAware Transoceanic
Sat 04:20:00 AM 46.0004 -30.0080 93° East  Level FlightAware Approximate
Sat 04:21:00 AM 45.9908 -29.7944 94° East  Level FlightAware Approximate
Sat 04:22:00 AM 45.9881 -29.8027 95° East  Level FlightAware Approximate
Sat 04:23:00 AM 45.9749 -29.5895 95° East  Level FlightAware Approximate
Sat 04:24:00 AM 45.9613 -29.3764 95° East  Level FlightAware Approximate
Sat 04:24:00 AM 46.0000 -30.0000 95° East 566 651 33,000  Level ETMS Enhanced Traffic Management System
Sat 04:25:00 AM 45.9473 -29.1635 95° East  Level FlightAware Approximate
Sat 04:26:00 AM 45.9329 -28.9506 95° East  Level FlightAware Approximate
Sat 04:27:00 AM 45.9182 -28.7379 96° East  Level FlightAware Approximate
Sat 04:28:00 AM 45.9039 -28.5252 95° East  Level FlightAware Approximate
Sat 04:29:00 AM 45.8894 -28.3125 96° East  Level FlightAware Approximate
Sat 04:30:00 AM 45.8703 -27.9739 96° East 566 651 33,000  Level FlightAware Transoceanic
Sat 04:31:00 AM 45.8537 -27.7493 96° East 566 651 33,000  Level FlightAware Transoceanic
Sat 04:32:00 AM 45.8367 -27.5250 96° East 566 651 33,000  Level FlightAware Transoceanic
Sat 04:33:00 AM 45.8192 -27.3007 96° East 566 651 33,000  Level FlightAware Transoceanic
Sat 04:34:00 AM 45.8013 -27.0766 97° East 566 651 33,000  Level FlightAware Transoceanic
Sat 04:35:00 AM 45.7829 -26.8527 97° East 566 651 33,000  Level FlightAware Transoceanic
Sat 04:36:00 AM 45.7641 -26.6289 97° East 566 651 33,000  Level FlightAware Transoceanic
Sat 04:37:00 AM 45.7449 -26.4052 97° East 566 651 33,000  Level FlightAware Transoceanic
Sat 04:38:00 AM 45.7252 -26.1817 97° East 566 651 33,000  Level FlightAware Transoceanic
Sat 04:39:00 AM 45.7051 -25.9584 97° East 566 651 33,000  Level FlightAware Transoceanic
Sat 04:40:00 AM 45.6845 -25.7353 98° East 566 651 33,000  Level FlightAware Transoceanic
Sat 04:41:00 AM 45.6635 -25.5123 98° East 566 651 33,000  Level FlightAware Transoceanic
Sat 04:42:00 AM 45.6421 -25.2894 98° East 566 651 33,000  Level FlightAware Transoceanic
Sat 04:43:00 AM 45.6203 -25.0667 98° East 566 651 33,000  Level FlightAware Transoceanic
Sat 04:44:00 AM 45.5980 -24.8443 98° East 566 651 33,000  Level FlightAware Transoceanic
Sat 04:45:00 AM 45.5753 -24.6220 98° East 566 651 33,000  Level FlightAware Transoceanic
Sat 04:46:00 AM 45.5522 -24.3998 99° East 566 651 33,000  Level FlightAware Transoceanic
Sat 04:47:00 AM 45.5286 -24.1779 99° East 566 651 33,000  Level FlightAware Transoceanic
Sat 04:48:00 AM 45.5046 -23.9561 99° East 566 651 33,000  Level FlightAware Transoceanic
Sat 04:49:00 AM 45.4801 -23.7346 99° East 566 651 33,000  Level FlightAware Transoceanic
Sat 04:50:00 AM 45.4553 -23.5132 99° East 566 651 33,000  Level FlightAware Transoceanic
Sat 04:51:00 AM 45.4300 -23.2920 99° East 566 651 33,000  Level FlightAware Transoceanic
Sat 04:52:00 AM 45.4043 -23.0711 99° East 566 651 33,000  Level FlightAware Transoceanic
Sat 04:53:00 AM 45.3782 -22.8503 100° East 566 651 33,000  Level FlightAware Transoceanic
Sat 04:54:00 AM 45.3516 -22.6297 100° East 566 651 33,000  Level FlightAware Transoceanic
Sat 04:55:00 AM 45.3246 -22.4093 100° East 566 651 33,000  Level FlightAware Transoceanic
Sat 04:56:00 AM 45.2972 -22.1892 100° East 566 651 33,000  Level FlightAware Transoceanic
Sat 04:57:00 AM 45.2694 -21.9693 100° East 566 651 33,000  Level FlightAware Transoceanic
Sat 04:58:00 AM 45.2411 -21.7496 100° East 566 651 33,000  Level FlightAware Transoceanic
Sat 04:59:00 AM 45.2124 -21.5301 101° East 566 651 33,000  Level FlightAware Transoceanic
Sat 05:00:00 AM 45.1833 -21.3108 101° East 566 651 33,000  Level FlightAware Transoceanic
Sat 05:01:00 AM 45.1538 -21.0917 101° East 566 651 33,000  Level FlightAware Transoceanic
Sat 05:02:00 AM 45.1239 -20.8729 101° East 566 651 33,000  Level FlightAware Transoceanic
Sat 05:03:00 AM 45.0935 -20.6544 101° East 566 651 33,000  Level FlightAware Transoceanic
Sat 05:04:00 AM 45.0628 -20.4360 101° East 566 651 33,000  Level FlightAware Transoceanic
Sat 05:05:00 AM 45.0316 -20.2179 102° East 566 651 33,000 56 Level FlightAware Transoceanic
Sat 05:06:00 AM 45.0017 -20.0118 102° East  Level FlightAware Approximate
Sat 05:07:00 AM 44.9715 -19.8059 102° East  Level FlightAware Approximate
Sat 05:08:00 AM 44.9665 -19.8199 105° East  Level FlightAware Approximate
Sat 05:09:00 AM 44.9284 -19.6168 105° East  Level FlightAware Approximate
Sat 05:10:00 AM 44.8907 -19.4179 105° East  Level FlightAware Approximate
Sat 05:11:00 AM 44.8526 -19.2193 105° East  Level FlightAware Approximate
Sat 05:12:00 AM 44.8142 -19.0209 105° East  Level FlightAware Approximate
Sat 05:13:00 AM 44.7755 -18.8228 105° East  Level FlightAware Approximate
Sat 05:14:00 AM 44.7364 -18.6249 105° East  Level FlightAware Approximate
Sat 05:15:00 AM 44.6969 -18.4273 106° East  Level FlightAware Approximate
Sat 05:16:00 AM 44.6571 -18.2300 106° East  Level FlightAware Approximate
Sat 05:17:00 AM 44.6170 -18.0329 106° East  Level FlightAware Approximate
Sat 05:18:00 AM 44.5773 -17.8358 106° East  Level FlightAware Approximate
Sat 05:19:00 AM 44.5378 -17.6388 106° East  Level FlightAware Approximate
Sat 05:20:00 AM 44.4980 -17.4420 106° East  Level FlightAware Approximate
Sat 05:21:00 AM 44.4579 -17.2455 106° East  Level FlightAware Approximate
Sat 05:22:00 AM 44.4174 -17.0493 106° East  Level FlightAware Approximate
Sat 05:23:00 AM 44.3766 -16.8533 106° East  Level FlightAware Approximate
Sat 05:24:00 AM 44.3354 -16.6577 106° East  Level FlightAware Approximate
Sat 05:25:00 AM 44.2939 -16.4623 106° East  Level FlightAware Approximate
Sat 05:26:00 AM 44.2521 -16.2671 107° East  Level FlightAware Approximate
Sat 05:27:00 AM 44.2100 -16.0723 107° East  Level FlightAware Approximate
Sat 05:28:00 AM 44.1677 -15.8777 107° East  Level FlightAware Approximate
Sat 05:29:00 AM 44.1253 -15.6832 107° East  Level FlightAware Approximate
Sat 05:30:00 AM 44.0826 -15.4890 107° East  Level FlightAware Approximate
Sat 05:31:00 AM 44.0395 -15.2951 107° East  Level FlightAware Approximate
Sat 05:32:00 AM 43.9961 -15.1014 107° East  Level FlightAware Approximate
Sat 05:33:00 AM 43.9524 -14.9081 107° East  Level FlightAware Approximate
Sat 05:34:00 AM 43.9084 -14.7150 108° East  Level FlightAware Approximate
Sat 05:35:00 AM 43.8641 -14.5223 108° East  Level FlightAware Approximate
Sat 05:36:00 AM 43.8194 -14.3298 108° East  Level FlightAware Approximate
Sat 05:37:00 AM 43.7744 -14.1376 108° East  Level FlightAware Approximate
Sat 05:38:00 AM 43.7290 -13.9457 108° East  Level FlightAware Approximate
Sat 05:39:00 AM 43.6834 -13.7541 108° East  Level FlightAware Approximate
Sat 05:40:00 AM 43.6375 -13.5628 108° East  Level FlightAware Approximate
Sat 05:41:00 AM 43.5912 -13.3717 108° East  Level FlightAware Approximate
Sat 05:41:21 AM 43.4670 -12.6750 109° East 555 639 35,100  Level FlightAware ADS-B
Sat 05:41:59 AM 43.4560 -12.5620 98° East 555 639 35,100  Level FlightAware ADS-B
Sat 05:42:00 AM 43.5446 -13.1810 109° East  Level FlightAware Approximate
Sat 05:42:31 AM 43.4400 -12.4220 99° East 551 634 35,100  Level FlightAware ADS-B
Sat 05:43:15 AM 43.4260 -12.2890 98° East 551 634 35,100  Level FlightAware ADS-B
Sat 05:44:12 AM 43.4030 -12.0870 99° East 550 633 35,100  Level FlightAware ADS-B
Sat 05:45:07 AM 43.3820 -11.8950 98° East 549 632 35,100 67 Level FlightAware ADS-B
Sat 05:45:41 AM 43.3820 -11.8950 98° East 550 633 35,200 455 Climbing FlightAware ADS-B
Sat 05:46:13 AM 43.3560 -11.6700 99° East 441 507 35,600 614 Climbing FlightAware ADS-B
Sat 05:47:09 AM 43.3340 -11.4780 99° East 557 641 36,100 341 Climbing FlightAware ADS-B
Sat 05:47:41 AM 43.3190 -11.3480 99° East 557 641 36,100  Level FlightAware ADS-B
Sat 05:48:21 AM 43.3050 -11.2290 99° East 557 641 36,100  Level FlightAware ADS-B
Sat 05:49:01 AM 43.3100 -11.2710 279° West 558 642 36,100  Level FlightAware ADS-B
Sat 05:49:36 AM 43.2720 -10.9480 99° East 561 646 36,100  Level FlightAware ADS-B
Sat 05:50:06 AM 43.2610 -10.8390 98° East 563 648 36,100  Level FlightAware ADS-B
Sat 05:50:42 AM 43.2480 -10.7050 98° East 564 649 36,100  Level FlightAware ADS-B
Sat 05:51:17 AM 43.2350 -10.5820 98° East 563 648 36,100  Level FlightAware ADS-B
Sat 05:51:52 AM 43.2220 -10.4620 98° East 562 647 36,100  Level FlightAware ADS-B
Sat 05:52:27 AM 43.2080 -10.3400 99° East 559 643 36,100  Level FlightAware ADS-B
Sat 05:53:02 AM 43.1940 -10.2150 99° East 558 642 36,100  Level FlightAware ADS-B
Sat 05:53:37 AM 43.1790 -10.0900 99° East 556 640 36,100  Level FlightAware ADS-B
Sat 05:54:12 AM 43.1640 -9.9720 100° East 555 639 36,100  Level FlightAware ADS-B
Sat 05:54:47 AM 43.1480 -9.8500 100° East 554 638 36,100  Level FlightAware ADS-B
Sat 05:55:22 AM 43.1320 -9.7280 100° East 553 636 36,100  Level FlightAware ADS-B
Sat 05:55:57 AM 43.1160 -9.6070 100° East 552 635 36,100  Level FlightAware ADS-B
Sat 05:56:32 AM 43.1000 -9.4900 101° East 551 634 36,100  Level FlightAware ADS-B
Sat 05:57:07 AM 43.0830 -9.3710 101° East 548 631 36,100  Level FlightAware ADS-B
Sat 05:57:43 AM 43.0680 -9.2560 100° East 547 629 36,100  Level FlightAware ADS-B
Sat 05:58:17 AM 43.0500 -9.1310 101° East 544 626 36,100  Level FlightAware ADS-B
Sat 05:58:53 AM 43.0360 -9.0360 101° East 543 625 36,100  Level FlightAware ADS-B
Sat 05:59:28 AM 43.0170 -8.8960 100° East 542 624 36,100  Level FlightAware ADS-B
Sat 05:59:53 AM 43.0040 -8.8080 101° East 541 623 36,100  Level FlightAware ADS-B
Sat 06:00:57 AM 42.9750 -8.6080 101° East 536 617 36,100  Level FlightAware ADS-B
Sat 06:01:33 AM 42.9560 -8.4760 101° East 536 617 36,100  Level FlightAware ADS-B
Sat 06:02:08 AM 42.9440 -8.3580 98° East 539 620 36,100  Level FlightAware ADS-B
Sat 06:02:43 AM 42.9360 -8.2450 95° East 542 624 36,100  Level FlightAware ADS-B
Sat 06:03:01 AM 42.9340 -8.1880 93° East 542 624 36,100  Level FlightAware ADS-B
Sat 06:04:14 AM 42.9210 -7.9400 94° East 543 625 36,100  Level FlightAware ADS-B
Sat 06:04:54 AM 42.9120 -7.7990 95° East 544 626 36,100  Level FlightAware ADS-B
Sat 06:05:23 AM 42.9060 -7.7060 95° East 545 627 36,100  Level FlightAware ADS-B
Sat 06:05:59 AM 42.8970 -7.5760 95° East 546 628 36,100  Level FlightAware ADS-B
Sat 06:06:36 AM 42.8880 -7.4460 95° East 547 629 36,100  Level FlightAware ADS-B
Sat 06:07:11 AM 42.8800 -7.3230 95° East 549 632 36,100  Level FlightAware ADS-B
Sat 06:07:46 AM 42.8710 -7.2070 96° East 550 633 36,100  Level FlightAware ADS-B
Sat 06:08:21 AM 42.8630 -7.0870 95° East 551 634 36,100  Level FlightAware ADS-B
Sat 06:08:56 AM 42.8540 -6.9650 96° East 551 634 36,100  Level FlightAware ADS-B
Sat 06:09:31 AM 42.8450 -6.8410 96° East 550 633 36,100  Level FlightAware ADS-B
Sat 06:10:06 AM 42.8360 -6.7210 96° East 548 631 36,100  Level FlightAware ADS-B
Sat 06:10:41 AM 42.8270 -6.6000 96° East 547 629 36,100  Level FlightAware ADS-B
Sat 06:11:16 AM 42.8170 -6.4810 96° East 548 631 36,100  Level FlightAware ADS-B
Sat 06:11:53 AM 42.8090 -6.3770 96° East 548 631 36,100  Level FlightAware ADS-B
Sat 06:12:24 AM 42.7990 -6.2550 96° East 548 631 36,100  Level FlightAware ADS-B
Sat 06:12:54 AM 42.7900 -6.1480 97° East 548 631 36,100  Level FlightAware ADS-B
Sat 06:13:29 AM 42.7800 -6.0260 96° East 549 632 36,100  Level FlightAware ADS-B
Sat 06:14:09 AM 42.7690 -5.8920 96° East 549 632 36,100  Level FlightAware ADS-B
Sat 06:14:39 AM 42.7600 -5.7870 97° East 547 629 36,100  Level FlightAware ADS-B
Sat 06:15:14 AM 42.7500 -5.6740 97° East 546 628 36,100  Level FlightAware ADS-B
Sat 06:15:49 AM 42.7390 -5.5500 97° East 546 628 36,100  Level FlightAware ADS-B
Sat 06:16:29 AM 42.7270 -5.4120 97° East 546 628 36,100  Level FlightAware ADS-B
Sat 06:16:59 AM 42.7180 -5.3130 97° East 546 628 36,100  Level FlightAware ADS-B
Sat 06:17:34 AM 42.7090 -5.2050 96° East 546 628 36,100  Level FlightAware ADS-B
Sat 06:18:21 AM 42.6930 -5.0360 97° East 545 627 36,100  Level FlightAware ADS-B
Sat 06:18:51 AM 42.6830 -4.9290 97° East 546 628 36,100  Level FlightAware ADS-B
Sat 06:19:26 AM 42.6720 -4.8110 97° East 545 627 36,100  Level FlightAware ADS-B
Sat 06:20:23 AM 42.6550 -4.6290 97° East 545 627 36,100  Level FlightAware ADS-B
Sat 06:21:02 AM 42.6410 -4.4900 98° East 543 625 36,100  Level FlightAware ADS-B
Sat 06:21:36 AM 42.6290 -4.3750 98° East 542 624 36,100  Level FlightAware ADS-B
Sat 06:22:11 AM 42.6170 -4.2520 98° East 542 624 36,100  Level FlightAware ADS-B
Sat 06:22:46 AM 42.6060 -4.1370 97° East 541 623 36,100  Level FlightAware ADS-B
Sat 06:22:51 AM 42.6040 -4.1180 98° East 541 623 36,100  Level FlightAware ADS-B
Sat 06:23:56 AM 42.5810 -3.8980 98° East 542 624 36,100  Level FlightAware ADS-B
Sat 06:24:31 AM 42.5700 -3.7860 98° East 541 623 36,100  Level FlightAware ADS-B
Sat 06:25:06 AM 42.5560 -3.6630 99° East 539 620 36,100  Level FlightAware ADS-B
Sat 06:25:46 AM 42.5280 -3.5340 106° East 535 616 36,100  Level FlightAware ADS-B
Sat 06:26:21 AM 42.5020 -3.4250 108° East 534 615 36,100  Level FlightAware ADS-B
Sat 06:26:56 AM 42.4750 -3.3130 108° East 536 617 36,100  Level FlightAware ADS-B
Sat 06:27:31 AM 42.4480 -3.2000 108° East 535 616 36,100  Level FlightAware ADS-B
Sat 06:28:06 AM 42.4210 -3.0880 108° East 534 615 36,100  Level FlightAware ADS-B
Sat 06:28:41 AM 42.3950 -2.9780 108° East 533 613 36,100  Level FlightAware ADS-B
Sat 06:29:16 AM 42.3680 -2.8700 109° East 532 612 36,100  Level FlightAware ADS-B
Sat 06:29:51 AM 42.3410 -2.7580 108° East 534 615 36,100  Level FlightAware ADS-B
Sat 06:30:26 AM 42.3210 -2.6510 104° East 533 613 36,100  Level FlightAware ADS-B
Sat 06:31:01 AM 42.3010 -2.5370 103° East 534 615 36,100  Level FlightAware ADS-B
Sat 06:31:35 AM 42.2830 -2.4310 103° East 534 615 36,100  Level FlightAware ADS-B
Sat 06:32:25 AM 42.2530 -2.2600 103° East 532 612 36,100  Level FlightAware ADS-B
Sat 06:33:00 AM 42.2350 -2.1520 103° East 531 611 36,100  Level FlightAware ADS-B
Sat 06:33:35 AM 42.2150 -2.0340 103° East 531 611 36,100  Level FlightAware ADS-B
Sat 06:34:21 AM 42.1920 -1.9040 103° East 530 610 36,100  Level FlightAware ADS-B
Sat 06:34:54 AM 42.1700 -1.7740 103° East 529 609 36,100  Level FlightAware ADS-B
Sat 06:35:25 AM 42.1550 -1.6880 103° East 528 608 36,100  Level FlightAware ADS-B
Sat 06:36:04 AM 42.1310 -1.5510 103° East 528 608 36,100  Level FlightAware ADS-B
Sat 06:36:58 AM 42.1000 -1.3790 104° East 529 609 36,100  Level FlightAware ADS-B
Sat 06:37:32 AM 42.0810 -1.2710 103° East 529 609 36,100  Level FlightAware ADS-B
Sat 06:38:08 AM 42.0600 -1.1560 104° East 529 609 36,100  Level FlightAware ADS-B
Sat 06:38:45 AM 42.0430 -1.0550 103° East 529 609 36,100  Level FlightAware ADS-B
Sat 06:39:20 AM 42.0180 -0.9260 105° East 527 606 36,100  Level FlightAware ADS-B
Sat 06:40:07 AM 41.9970 -0.8070 103° East 526 605 36,100  Level FlightAware ADS-B
Sat 06:40:43 AM 41.9810 -0.7090 102° East 526 605 36,100  Level FlightAware ADS-B
Sat 06:41:25 AM 41.9470 -0.5350 105° East 522 601 36,100  Level FlightAware ADS-B
Sat 06:42:00 AM 41.9260 -0.4220 104° East 522 601 36,100  Level FlightAware ADS-B
Sat 06:42:50 AM 41.9040 -0.3040 104° East 523 602 36,100  Level FlightAware ADS-B
Sat 06:43:20 AM 41.8730 -0.1740 108° East 521 600 36,100  Level FlightAware ADS-B
Sat 06:43:59 AM 41.8510 -0.0710 106° East 521 600 36,100  Level FlightAware ADS-B
Sat 06:45:00 AM 41.8020 0.1300 108° East 526 605 36,100  Level FlightAware ADS-B
Sat 06:45:51 AM 41.7690 0.2720 107° East 526 605 36,100  Level FlightAware ADS-B
Sat 06:46:32 AM 41.7440 0.3770 108° East 526 605 36,100  Level FlightAware ADS-B
Sat 06:47:06 AM 41.7240 0.4670 107° East 526 605 36,100  Level FlightAware ADS-B
Sat 06:47:42 AM 41.7020 0.5620 107° East 526 605 36,100  Level FlightAware ADS-B
Sat 06:49:07 AM 41.6170 0.8960 109° East 524 603 36,100  Level FlightAware ADS-B
Sat 06:49:42 AM 41.5880 1.0060 109° East 528 608 36,100  Level FlightAware ADS-B
Sat 06:50:16 AM 41.5600 1.1150 109° East 533 613 36,100  Level FlightAware ADS-B
Sat 06:50:54 AM 41.5310 1.2350 108° East 539 620 36,100  Level FlightAware ADS-B
Sat 06:51:30 AM 41.5050 1.3510 107° East 542 624 36,100  Level FlightAware ADS-B
Sat 06:52:02 AM 41.4820 1.4540 107° East 543 625 36,100  Level FlightAware ADS-B
Sat 06:52:38 AM 41.4550 1.5690 107° East 543 625 36,100  Level FlightAware ADS-B
Sat 06:53:14 AM 41.4280 1.6820 108° East 541 623 36,100  Level FlightAware ADS-B
Sat 06:53:46 AM 41.4020 1.7820 109° East 536 617 36,100  Level FlightAware ADS-B
Sat 06:54:24 AM 41.3710 1.9010 109° East 533 613 36,100  Level FlightAware ADS-B
Sat 06:55:00 AM 41.3410 2.0110 110° East 532 612 36,100  Level FlightAware ADS-B
Sat 06:55:32 AM 41.3170 2.1100 108° East 532 612 36,100  Level FlightAware ADS-B
Sat 06:56:08 AM 41.2950 2.2260 104° East 533 613 36,100  Level FlightAware ADS-B
Sat 06:56:44 AM 41.2760 2.3430 102° East 532 612 36,100  Level FlightAware ADS-B
Sat 06:57:20 AM 41.2590 2.4580 101° East 530 610 36,100  Level FlightAware ADS-B
Sat 06:57:50 AM 41.2450 2.5510 101° East 530 610 36,100  Level FlightAware ADS-B
Sat 06:58:28 AM 41.2260 2.6740 102° East 529 609 36,100  Level FlightAware ADS-B
Sat 06:59:04 AM 41.2080 2.7870 102° East 528 608 36,100  Level FlightAware ADS-B
Sat 06:59:36 AM 41.1910 2.8880 103° East 528 608 36,100  Level FlightAware ADS-B
Sat 06:59:56 AM 41.1810 2.9510 102° East 529 609 36,100  Level FlightAware ADS-B
Sat 07:00:44 AM 41.1560 3.0920 103° East 529 609 36,100  Level FlightAware ADS-B
Sat 07:01:18 AM 41.1370 3.2060 102° East 529 609 36,100  Level FlightAware ADS-B
Sat 07:01:56 AM 41.1140 3.3340 103° East 530 610 36,100  Level FlightAware ADS-B
Sat 07:02:28 AM 41.0970 3.4300 103° East 531 611 36,100  Level FlightAware ADS-B
Sat 07:02:40 AM 41.0900 3.4700 103° East 530 610 36,100  Level FlightAware ADS-B
Sat 07:03:31 AM 41.0620 3.6260 103° East 531 611 36,100  Level FlightAware ADS-B
Sat 07:04:04 AM 41.0420 3.7370 103° East 529 609 36,100  Level FlightAware ADS-B
Sat 07:04:40 AM 41.0220 3.8510 103° East 529 609 36,100  Level FlightAware ADS-B
Sat 07:05:16 AM 41.0020 3.9630 103° East 529 609 36,100  Level FlightAware ADS-B
Sat 07:05:48 AM 40.9840 4.0650 103° East 530 610 36,100  Level FlightAware ADS-B
Sat 07:06:28 AM 40.9650 4.1750 103° East 530 610 36,100  Level FlightAware ADS-B
Sat 07:07:02 AM 40.9470 4.2750 103° East 529 609 36,100  Level FlightAware ADS-B
Sat 07:07:43 AM 40.9210 4.4160 104° East 527 606 36,100  Level FlightAware ADS-B
Sat 07:08:18 AM 40.9000 4.5310 104° East 526 605 36,100  Level FlightAware ADS-B
Sat 07:08:48 AM 40.8840 4.6160 104° East 525 604 36,100  Level FlightAware ADS-B
Sat 07:09:31 AM 40.8660 4.7440 100° East 525 604 36,100  Level FlightAware ADS-B
Sat 07:10:11 AM 40.8580 4.8520 96° East 524 603 36,100  Level FlightAware ADS-B
Sat 07:10:48 AM 40.8500 4.9520 96° East 524 603 36,100  Level FlightAware ADS-B
Sat 07:11:22 AM 40.8390 5.0730 97° East 522 601 36,100  Level FlightAware ADS-B
Sat 07:11:59 AM 40.8310 5.1730 96° East 522 601 36,100  Level FlightAware ADS-B
Sat 07:12:39 AM 40.8120 5.3450 98° East 523 602 36,100  Level FlightAware ADS-B
Sat 07:13:16 AM 40.8030 5.4450 97° East 523 602 36,100  Level FlightAware ADS-B
Sat 07:13:52 AM 40.7940 5.5420 97° East 523 602 36,100  Level FlightAware ADS-B
Sat 07:14:31 AM 40.7760 5.7050 98° East 36,100  Level FlightAware ADS-B
Sat 07:15:16 AM 40.7600 5.8560 98° East 523 602 36,100  Level FlightAware ADS-B
Sat 07:15:52 AM 40.7490 5.9660 97° East 522 601 36,100  Level FlightAware ADS-B
Sat 07:16:26 AM 40.7380 6.0760 97° East 522 601 36,100  Level FlightAware ADS-B
Sat 07:17:01 AM 40.7270 6.1870 97° East 521 600 36,100  Level FlightAware ADS-B
Sat 07:17:36 AM 40.7160 6.2950 98° East 519 597 36,100  Level FlightAware ADS-B
Sat 07:18:12 AM 40.7040 6.4060 98° East 518 596 36,100  Level FlightAware ADS-B
Sat 07:18:46 AM 40.6930 6.5130 98° East 517 595 36,100  Level FlightAware ADS-B
Sat 07:19:21 AM 40.6810 6.6260 98° East 516 594 36,100  Level FlightAware ADS-B
Sat 07:19:56 AM 40.6700 6.7320 98° East 517 595 36,100  Level FlightAware ADS-B
Sat 07:20:54 AM 40.6510 6.9040 98° East 517 595 36,100  Level FlightAware ADS-B
Sat 07:21:29 AM 40.6390 7.0110 98° East 517 595 36,100  Level FlightAware ADS-B
Sat 07:22:09 AM 40.6240 7.1470 98° East 517 595 36,100  Level FlightAware ADS-B
Sat 07:22:39 AM 40.6130 7.2430 99° East 516 594 36,100  Level FlightAware ADS-B
Sat 07:23:19 AM 40.6040 7.3280 98° East 515 593 36,100 750 Level FlightAware ADS-B
Sat 07:23:51 AM 40.5890 7.4630 98° East 512 589 37,000 882 Climbing FlightAware ADS-B
Sat 07:24:27 AM 40.5750 7.5760 99° East 513 590 37,100 85 Climbing FlightAware ADS-B
Sat 07:25:02 AM 40.5620 7.6840 99° East 507 583 37,100  Level FlightAware ADS-B
Sat 07:25:37 AM 40.5500 7.7890 99° East 505 581 37,100  Level FlightAware ADS-B
Sat 07:26:12 AM 40.5370 7.8970 99° East 505 581 37,100  Level FlightAware ADS-B
Sat 07:26:47 AM 40.5240 8.0020 99° East 503 579 37,100  Level FlightAware ADS-B
Sat 07:27:17 AM 40.5130 8.0910 99° East 502 578 37,100  Level FlightAware ADS-B
Sat 07:28:02 AM 40.4960 8.2270 99° East 500 575 37,100  Level FlightAware ADS-B
Sat 07:28:37 AM 40.4830 8.3330 99° East 501 577 37,100  Level FlightAware ADS-B
Sat 07:29:17 AM 40.4680 8.4520 99° East 501 577 37,100  Level FlightAware ADS-B
Sat 07:29:48 AM 40.4560 8.5430 100° East 502 578 37,100  Level FlightAware ADS-B
Sat 07:30:22 AM 40.4420 8.6500 100° East 502 578 37,100  Level FlightAware ADS-B
Sat 07:30:57 AM 40.4290 8.7530 99° East 502 578 37,100  Level FlightAware ADS-B
Sat 07:31:37 AM 40.4130 8.8720 100° East 502 578 37,100  Level FlightAware ADS-B
Sat 07:32:07 AM 40.4010 8.9620 100° East 501 577 37,100  Level FlightAware ADS-B
Sat 07:32:42 AM 40.3870 9.0690 100° East 500 575 37,100  Level FlightAware ADS-B
Sat 07:33:17 AM 40.3730 9.1710 100° East 498 573 37,100  Level FlightAware ADS-B
Sat 07:33:57 AM 40.3550 9.2930 101° East 497 572 37,100  Level FlightAware ADS-B
Sat 07:34:27 AM 40.3430 9.3800 100° East 497 572 37,100  Level FlightAware ADS-B
Sat 07:35:02 AM 40.3270 9.4850 101° East 496 571 37,100  Level FlightAware ADS-B
Sat 07:35:37 AM 40.3130 9.5870 100° East 496 571 37,100  Level FlightAware ADS-B
Sat 07:36:12 AM 40.2980 9.6930 100° East 497 572 37,100  Level FlightAware ADS-B
Sat 07:36:47 AM 40.2830 9.7950 101° East 497 572 37,100  Level FlightAware ADS-B
Sat 07:37:23 AM 40.2680 9.8980 101° East 496 571 37,100  Level FlightAware ADS-B
Sat 07:38:02 AM 40.2510 10.0160 101° East 495 570 37,100  Level FlightAware ADS-B
Sat 07:38:32 AM 40.2380 10.1060 101° East 493 567 37,100  Level FlightAware ADS-B
Sat 07:39:07 AM 40.2240 10.2060 100° East 493 567 37,100  Level FlightAware ADS-B
Sat 07:39:42 AM 40.2080 10.3130 101° East 493 567 37,100  Level FlightAware ADS-B
Sat 07:40:22 AM 40.1920 10.4260 100° East 491 565 37,100  Level FlightAware ADS-B
Sat 07:40:52 AM 40.1780 10.5150 102° East 491 565 37,100  Level FlightAware ADS-B
Sat 07:41:32 AM 40.1610 10.6320 101° East 491 565 37,100  Level FlightAware ADS-B
Sat 07:42:02 AM 40.1480 10.7200 101° East 491 565 37,100  Level FlightAware ADS-B
Sat 07:42:37 AM 40.1330 10.8200 101° East 490 564 37,100  Level FlightAware ADS-B
Sat 07:43:12 AM 40.1170 10.9240 101° East 489 563 37,100  Level FlightAware ADS-B
Sat 07:43:52 AM 40.1000 11.0390 101° East 489 563 37,100  Level FlightAware ADS-B
Sat 07:44:22 AM 40.0860 11.1280 102° East 489 563 37,100  Level FlightAware ADS-B
Sat 07:44:57 AM 40.0710 11.2260 101° East 488 562 37,100  Level FlightAware ADS-B
Sat 07:45:32 AM 40.0550 11.3290 101° East 487 560 37,100  Level FlightAware ADS-B
Sat 07:46:12 AM 40.0370 11.4430 102° East 486 559 37,100  Level FlightAware ADS-B
Sat 07:46:42 AM 40.0230 11.5300 102° East 486 559 37,100  Level FlightAware ADS-B
Sat 07:47:18 AM 40.0080 11.6280 101° East 485 558 37,100  Level FlightAware ADS-B
Sat 07:47:57 AM 39.9900 11.7420 102° East 485 558 37,100  Level FlightAware ADS-B
Sat 07:48:29 AM 39.9740 11.8390 102° East 485 558 37,100  Level FlightAware ADS-B
Sat 07:49:05 AM 39.9570 11.9420 102° East 485 558 37,100  Level FlightAware ADS-B
Sat 07:49:41 AM 39.9410 12.0410 102° East 485 558 37,100  Level FlightAware ADS-B
Sat 07:50:13 AM 39.9260 12.1330 102° East 485 558 37,100  Level FlightAware ADS-B
Sat 07:50:47 AM 39.9100 12.2340 102° East 484 557 37,100  Level FlightAware ADS-B
Sat 07:51:25 AM 39.8920 12.3390 103° East 484 557 37,100  Level FlightAware ADS-B
Sat 07:52:01 AM 39.8760 12.4420 101° East 483 556 37,100  Level FlightAware ADS-B
Sat 07:52:41 AM 39.8570 12.5550 102° East 482 555 37,100  Level FlightAware ADS-B
Sat 07:53:16 AM 39.8400 12.6570 102° East 482 555 37,100  Level FlightAware ADS-B
Sat 07:53:54 AM 39.8220 12.7660 102° East 481 554 37,100  Level FlightAware ADS-B
Sat 07:54:26 AM 39.8060 12.8550 103° East 481 554 37,100  Level FlightAware ADS-B
Sat 07:55:02 AM 39.7880 12.9560 103° East 481 554 37,100  Level FlightAware ADS-B
Sat 07:55:38 AM 39.7700 13.0590 103° East 481 554 37,100  Level FlightAware ADS-B
Sat 07:56:14 AM 39.7530 13.1600 102° East 482 555 37,100  Level FlightAware ADS-B
Sat 07:56:46 AM 39.7370 13.2500 103° East 482 555 37,100  Level FlightAware ADS-B
Sat 07:57:22 AM 39.7190 13.3520 103° East 482 555 37,100  Level FlightAware ADS-B
Sat 07:57:58 AM 39.7020 13.4510 103° East 482 555 37,100  Level FlightAware ADS-B
Sat 07:58:30 AM 39.6850 13.5430 103° East 481 554 37,100  Level FlightAware ADS-B
Sat 07:59:06 AM 39.6670 13.6440 103° East 481 554 37,100  Level FlightAware ADS-B
Sat 07:59:42 AM 39.6490 13.7470 103° East 481 554 37,100  Level FlightAware ADS-B
Sat 08:00:18 AM 39.6320 13.8440 103° East 480 552 37,100  Level FlightAware ADS-B
Sat 08:00:50 AM 39.6150 13.9350 104° East 480 552 37,100  Level FlightAware ADS-B
Sat 08:01:28 AM 39.5960 14.0430 103° East 479 551 37,100  Level FlightAware ADS-B
Sat 08:02:04 AM 39.5780 14.1410 103° East 480 552 37,100  Level FlightAware ADS-B
Sat 08:02:36 AM 39.5620 14.2310 103° East 479 551 37,100  Level FlightAware ADS-B
Sat 08:03:12 AM 39.5440 14.3340 103° East 480 552 37,100  Level FlightAware ADS-B
Sat 08:03:48 AM 39.5260 14.4340 103° East 480 552 37,100  Level FlightAware ADS-B
Sat 08:04:27 AM 39.5070 14.5420 103° East 481 554 37,100  Level FlightAware ADS-B
Sat 08:05:03 AM 39.4890 14.6430 103° East 483 556 37,100  Level FlightAware ADS-B
Sat 08:05:39 AM 39.4700 14.7400 104° East 483 556 37,100  Level FlightAware ADS-B
Sat 08:06:11 AM 39.4520 14.8340 104° East 484 557 37,100  Level FlightAware ADS-B
Sat 08:06:49 AM 39.4320 14.9420 103° East 484 557 37,100  Level FlightAware ADS-B
Sat 08:07:21 AM 39.4150 15.0310 104° East 483 556 37,100  Level FlightAware ADS-B
Sat 08:07:58 AM 39.3960 15.1290 104° East 485 558 37,100  Level FlightAware ADS-B
Sat 08:08:33 AM 39.3760 15.2300 104° East 486 559 37,100  Level FlightAware ADS-B
Sat 08:09:09 AM 39.3560 15.3370 104° East 487 560 37,100  Level FlightAware ADS-B
Sat 08:09:43 AM 39.3380 15.4290 104° East 487 560 37,100  Level FlightAware ADS-B
Sat 08:10:20 AM 39.3180 15.5330 104° East 489 563 37,100  Level FlightAware ADS-B
Sat 08:10:51 AM 39.3010 15.6200 104° East 490 564 37,100  Level FlightAware ADS-B
Sat 08:11:31 AM 39.2850 15.7030 104° East 490 564 37,100  Level FlightAware ADS-B
Sat 08:11:55 AM 39.2640 15.8060 105° East 493 567 37,100  Level FlightAware ADS-B
Sat 08:12:42 AM 39.2390 15.9330 104° East 494 568 37,100  Level FlightAware ADS-B
Sat 08:13:18 AM 39.2240 16.0120 104° East 495 570 37,100  Level FlightAware ADS-B
Sat 08:13:51 AM 39.1980 16.1360 105° East 495 570 37,100  Level FlightAware ADS-B
Sat 08:14:27 AM 39.1750 16.2380 106° East 494 568 37,100  Level FlightAware ADS-B
Sat 08:14:59 AM 39.1550 16.3290 106° East 493 567 37,100  Level FlightAware ADS-B
Sat 08:15:36 AM 39.1320 16.4320 106° East 492 566 37,100  Level FlightAware ADS-B
Sat 08:16:11 AM 39.1100 16.5310 106° East 493 567 37,100  Level FlightAware ADS-B
Sat 08:16:47 AM 39.0870 16.6320 106° East 493 567 37,100  Level FlightAware ADS-B
Sat 08:17:21 AM 39.0660 16.7280 106° East 495 570 37,100  Level FlightAware ADS-B
Sat 08:17:51 AM 39.0460 16.8160 106° East 496 571 37,100  Level FlightAware ADS-B
Sat 08:18:33 AM 39.0190 16.9360 106° East 497 572 37,100  Level FlightAware ADS-B
Sat 08:19:03 AM 39.0010 17.0180 106° East 498 573 37,100  Level FlightAware ADS-B
Sat 08:19:43 AM 38.9750 17.1320 106° East 499 574 37,100  Level FlightAware ADS-B
Sat 08:20:19 AM 38.9510 17.2350 107° East 500 575 37,100  Level FlightAware ADS-B
Sat 08:20:51 AM 38.9300 17.3280 106° East 501 577 37,100  Level FlightAware ADS-B
Sat 08:21:27 AM 38.9070 17.4300 106° East 502 578 37,100  Level FlightAware ADS-B
Sat 08:22:03 AM 38.8830 17.5310 107° East 502 578 37,100  Level FlightAware ADS-B
Sat 08:22:40 AM 38.8590 17.6370 106° East 503 579 37,100  Level FlightAware ADS-B
Sat 08:23:11 AM 38.8380 17.7280 106° East 504 580 37,100  Level FlightAware ADS-B
Sat 08:23:47 AM 38.8130 17.8320 107° East 504 580 37,100  Level FlightAware ADS-B
Sat 08:24:23 AM 38.7900 17.9340 106° East 504 580 37,100  Level FlightAware ADS-B
Sat 08:24:59 AM 38.7660 18.0350 107° East 503 579 37,100  Level FlightAware ADS-B
Sat 08:25:31 AM 38.7440 18.1260 107° East 501 577 37,100  Level FlightAware ADS-B
Sat 08:26:08 AM 38.7200 18.2280 107° East 498 573 37,100  Level FlightAware ADS-B
Sat 08:26:43 AM 38.6950 18.3300 107° East 497 572 37,100  Level FlightAware ADS-B
Sat 08:27:19 AM 38.6710 18.4310 107° East 496 571 37,100  Level FlightAware ADS-B
Sat 08:27:52 AM 38.6500 18.5210 107° East 495 570 37,100  Level FlightAware ADS-B
Sat 08:28:27 AM 38.6250 18.6220 108° East 495 570 37,100  Level FlightAware ADS-B
Sat 08:29:03 AM 38.6020 18.7200 107° East 496 571 37,100  Level FlightAware ADS-B
Sat 08:29:35 AM 38.5800 18.8120 107° East 497 572 37,100  Level FlightAware ADS-B
Sat 08:30:09 AM 38.5580 18.9030 107° East 499 574 37,100  Level FlightAware ADS-B
Sat 08:30:43 AM 38.5450 18.9560 107° East 500 575 37,100  Level FlightAware ADS-B
Sat 08:31:22 AM 38.5220 19.0500 107° East 500 575 37,100  Level FlightAware ADS-B
Sat 08:32:18 AM 38.4730 19.2000 113° Southeast 503 579 37,100  Level FlightAware ADS-B
Sat 08:32:55 AM 38.4290 19.3470 111° Southeast 507 583 37,100  Level FlightAware ADS-B
Sat 08:33:33 AM 38.4010 19.4440 110° East 507 583 37,100  Level FlightAware ADS-B
Sat 08:34:07 AM 38.3730 19.5420 110° East 507 583 37,100  Level FlightAware ADS-B
Sat 08:34:47 AM 38.3400 19.6520 111° Southeast 507 583 37,100  Level FlightAware ADS-B
Sat 08:35:28 AM 38.3060 19.7680 110° East 508 585 37,100  Level FlightAware ADS-B
Sat 08:36:05 AM 38.2760 19.8690 111° Southeast 508 585 37,100  Level FlightAware ADS-B
Sat 08:36:37 AM 38.2490 19.9590 111° Southeast 510 587 37,100  Level FlightAware ADS-B
Sat 08:37:10 AM 38.2200 20.0540 111° Southeast 510 587 37,100  Level FlightAware ADS-B
Sat 08:37:59 AM 38.1850 20.1730 110° East 511 588 37,100  Level FlightAware ADS-B
Sat 08:38:43 AM 38.1500 20.2850 112° Southeast 508 585 37,100  Level FlightAware ADS-B
Sat 08:39:19 AM 38.1240 20.3700 111° Southeast 508 585 37,100  Level FlightAware ADS-B
Sat 08:39:55 AM 38.0990 20.4550 110° East 508 585 37,100  Level FlightAware ADS-B
Sat 08:40:21 AM 38.0800 20.5170 111° Southeast 508 585 37,100  Level FlightAware ADS-B
Sat 08:40:57 AM 38.0540 20.6020 111° Southeast 508 585 37,100  Level FlightAware ADS-B
Sat 08:41:31 AM 37.9880 20.8060 112° Southeast 513 590 37,100  Level FlightAware ADS-B
Sat 08:42:14 AM 37.9560 20.9120 111° Southeast 513 590 37,100  Level FlightAware ADS-B
Sat 08:42:52 AM 37.9290 21.0020 111° Southeast 513 590 37,100  Level FlightAware ADS-B
Sat 08:43:34 AM 37.8790 21.1520 113° Southeast 518 596 37,100  Level FlightAware ADS-B
Sat 08:44:10 AM 37.8460 21.2560 112° Southeast 521 600 37,100  Level FlightAware ADS-B
Sat 08:44:50 AM 37.8100 21.3690 112° Southeast 524 603 37,100  Level FlightAware ADS-B
Sat 08:45:26 AM 37.7780 21.4710 112° Southeast 525 604 37,100  Level FlightAware ADS-B
Sat 08:46:22 AM 37.7260 21.6330 112° Southeast 632 727 37,100  Level FlightAware ADS-B
Sat 08:47:10 AM 37.6810 21.7700 113° Southeast 531 611 37,100  Level FlightAware ADS-B
Sat 08:47:52 AM 37.6470 21.8790 111° Southeast 530 610 37,100  Level FlightAware ADS-B
Sat 08:48:22 AM 37.6170 21.9670 113° Southeast 550 633 37,100  Level FlightAware ADS-B
Sat 08:49:13 AM 37.5740 22.1050 111° Southeast 527 606 37,100  Level FlightAware ADS-B
Sat 08:50:06 AM 37.5260 22.2510 112° Southeast 528 608 37,100  Level FlightAware ADS-B
Sat 08:50:35 AM 37.4930 22.3450 114° Southeast 530 610 37,100  Level FlightAware ADS-B
Sat 08:51:14 AM 37.4530 22.4690 112° Southeast 533 613 37,100  Level FlightAware ADS-B
Sat 08:51:47 AM 37.4240 22.5570 113° Southeast 531 611 37,100  Level FlightAware ADS-B
Sat 08:52:26 AM 37.3890 22.6640 112° Southeast 530 610 37,100  Level FlightAware ADS-B
Sat 08:52:58 AM 37.3550 22.7680 112° Southeast 533 613 37,100  Level FlightAware ADS-B
Sat 08:53:34 AM 37.3210 22.8690 113° Southeast 533 613 37,100  Level FlightAware ADS-B
Sat 08:54:08 AM 37.2880 22.9670 113° Southeast 532 612 37,100  Level FlightAware ADS-B
Sat 08:54:46 AM 37.2510 23.0770 113° Southeast 531 611 37,100  Level FlightAware ADS-B
Sat 08:55:18 AM 37.2210 23.1650 113° Southeast 532 612 37,100  Level FlightAware ADS-B
Sat 08:55:55 AM 37.1880 23.2630 113° Southeast 531 611 37,100  Level FlightAware ADS-B
Sat 08:56:31 AM 37.1530 23.3650 113° Southeast 531 611 37,100  Level FlightAware ADS-B
Sat 08:57:04 AM 37.1190 23.4640 113° Southeast 532 612 37,100  Level FlightAware ADS-B
Sat 08:57:40 AM 37.0830 23.5680 113° Southeast 532 612 37,100  Level FlightAware ADS-B
Sat 08:58:12 AM 37.0520 23.6580 113° Southeast 533 613 37,100  Level FlightAware ADS-B
Sat 08:58:54 AM 37.0110 23.7800 113° Southeast 533 613 37,100  Level FlightAware ADS-B
Sat 08:59:30 AM 36.9770 23.8780 113° Southeast 532 612 37,100  Level FlightAware ADS-B
Sat 09:00:06 AM 36.9400 23.9820 114° Southeast 531 611 37,100  Level FlightAware ADS-B
Sat 09:00:42 AM 36.9040 24.0820 114° Southeast 530 610 37,100  Level FlightAware ADS-B
Sat 09:01:18 AM 36.8680 24.1840 114° Southeast 530 610 37,100  Level FlightAware ADS-B
Sat 09:01:50 AM 36.8360 24.2720 114° Southeast 528 608 37,100  Level FlightAware ADS-B
Sat 09:02:26 AM 36.8000 24.3730 114° Southeast 528 608 37,100  Level FlightAware ADS-B
Sat 09:03:02 AM 36.7640 24.4730 114° Southeast 527 606 37,100  Level FlightAware ADS-B
Sat 09:03:34 AM 36.7320 24.5620 114° Southeast 527 606 37,100  Level FlightAware ADS-B
Sat 09:04:10 AM 36.6960 24.6600 115° Southeast 527 606 37,100  Level FlightAware ADS-B
Sat 09:04:48 AM 36.6580 24.7670 114° Southeast 528 608 37,100  Level FlightAware ADS-B
Sat 09:05:20 AM 36.6250 24.8570 115° Southeast 528 608 37,100  Level FlightAware ADS-B
Sat 09:05:56 AM 36.5890 24.9550 115° Southeast 528 608 37,100  Level FlightAware ADS-B
Sat 09:06:32 AM 36.5520 25.0540 115° Southeast 529 609 37,100  Level FlightAware ADS-B
Sat 09:07:08 AM 36.5150 25.1530 115° Southeast 529 609 37,100  Level FlightAware ADS-B
Sat 09:07:40 AM 36.4830 25.2410 114° Southeast 529 609 37,100  Level FlightAware ADS-B
Sat 09:08:14 AM 36.4480 25.3350 115° Southeast 530 610 37,100  Level FlightAware ADS-B
Sat 09:08:54 AM 36.4070 25.4460 115° Southeast 530 610 37,100  Level FlightAware ADS-B
Sat 09:09:26 AM 36.3740 25.5340 115° Southeast 529 609 37,100  Level FlightAware ADS-B
Sat 09:10:02 AM 36.3370 25.6320 115° Southeast 530 610 37,100  Level FlightAware ADS-B
Sat 09:10:38 AM 36.3010 25.7310 114° Southeast 530 610 37,100  Level FlightAware ADS-B
Sat 09:11:10 AM 36.2670 25.8210 115° Southeast 531 611 37,100  Level FlightAware ADS-B
Sat 09:11:45 AM 36.2320 25.9150 115° Southeast 532 612 37,100  Level FlightAware ADS-B
Sat 09:12:22 AM 36.1920 26.0220 115° Southeast 531 611 37,100  Level FlightAware ADS-B
Sat 09:12:56 AM 36.1580 26.1140 115° Southeast 531 611 37,100  Level FlightAware ADS-B
Sat 09:13:32 AM 36.1200 26.2140 115° Southeast 531 611 37,100  Level FlightAware ADS-B
Sat 09:14:08 AM 36.0830 26.3110 115° Southeast 531 611 37,100  Level FlightAware ADS-B
Sat 09:14:40 AM 36.0490 26.4010 115° Southeast 531 611 37,100  Level FlightAware ADS-B
Sat 09:15:18 AM 36.0090 26.5040 116° Southeast 531 611 37,100  Level FlightAware ADS-B
Sat 09:15:54 AM 35.9710 26.6020 116° Southeast 531 611 37,100  Level FlightAware ADS-B
Sat 09:16:26 AM 35.9380 26.6900 115° Southeast 531 611 37,100  Level FlightAware ADS-B
Sat 09:17:02 AM 35.9000 26.7880 116° Southeast 530 610 37,100  Level FlightAware ADS-B
Sat 09:17:43 AM 35.8600 26.8920 115° Southeast 530 610 37,100  Level FlightAware ADS-B
Sat 09:18:23 AM 35.8240 26.9840 116° Southeast 531 611 37,100  Level FlightAware ADS-B
Sat 09:19:28 AM 35.7490 27.1730 116° Southeast 531 611 37,100  Level FlightAware ADS-B
Sat 09:19:55 AM 35.7250 27.2360 115° Southeast 531 611 37,100  Level FlightAware ADS-B
Sat 09:20:43 AM 35.6830 27.3480 115° Southeast 531 611 37,100  Level FlightAware ADS-B
Sat 09:21:19 AM 35.6510 27.4320 115° Southeast 531 611 37,100  Level FlightAware ADS-B
Sat 09:21:56 AM 35.6190 27.5180 115° Southeast 531 611 37,100  Level FlightAware ADS-B
Sat 09:22:32 AM 35.5870 27.6020 115° Southeast 531 611 37,100  Level FlightAware ADS-B
Sat 09:22:44 AM 35.5760 27.6300 116° Southeast 531 611 37,100  Level FlightAware ADS-B
Sat 09:23:50 AM 35.5180 27.7830 115° Southeast 531 611 37,100  Level FlightAware ADS-B
Sat 09:24:27 AM 35.4850 27.8690 115° Southeast 531 611 37,100  Level FlightAware ADS-B
Sat 09:25:03 AM 35.4530 27.9530 115° Southeast 531 611 37,100  Level FlightAware ADS-B
Sat 09:25:39 AM 35.4220 28.0360 115° Southeast 531 611 37,100  Level FlightAware ADS-B
Sat 09:26:15 AM 35.3900 28.1200 115° Southeast 531 611 37,100  Level FlightAware ADS-B
Sat 09:26:51 AM 35.3580 28.2030 115° Southeast 531 611 37,100  Level FlightAware ADS-B
Sat 09:27:27 AM 35.3260 28.2870 115° Southeast 531 611 37,100  Level FlightAware ADS-B
Sat 09:28:03 AM 35.2950 28.3700 115° Southeast 531 611 37,100  Level FlightAware ADS-B
Sat 09:28:39 AM 35.2630 28.4540 115° Southeast 531 611 37,100  Level FlightAware ADS-B
Sat 09:28:56 AM 35.1420 28.6910 122° Southeast 37,100  Level FlightAware ADS-B
Sat 09:29:51 AM 35.0830 28.8390 116° Southeast 519 597 37,100  Level FlightAware ADS-B
Sat 09:30:27 AM 35.0520 28.9200 115° Southeast 519 597 37,100  Level FlightAware ADS-B
Sat 09:31:06 AM 34.9970 29.0440 118° Southeast 521 600 37,100  Level FlightAware ADS-B
Sat 09:31:48 AM 34.9610 29.1380 115° Southeast 521 600 37,100  Level FlightAware ADS-B
Sat 09:32:24 AM 34.9300 29.2190 115° Southeast 521 600 37,100  Level FlightAware ADS-B
Sat 09:32:57 AM 34.8790 29.3300 119° Southeast 519 597 37,100  Level FlightAware ADS-B
Sat 09:33:44 AM 34.8350 29.4410 116° Southeast 519 597 37,100  Level FlightAware ADS-B
Sat 09:34:23 AM 34.7830 29.5620 118° Southeast 518 596 37,100  Level FlightAware ADS-B
Sat 09:34:53 AM 34.7500 29.6410 117° Southeast 518 596 37,100  Level FlightAware ADS-B
Sat 09:35:34 AM 34.7050 29.7470 117° Southeast 519 597 37,100 -79 Level FlightAware ADS-B
Sat 09:36:09 AM 34.6660 29.8390 117° Southeast 519 597 37,000 -646 Descending FlightAware ADS-B
Sat 09:36:39 AM 34.6360 29.9110 117° Southeast 518 596 36,400 -444 Descending FlightAware ADS-B
Sat 09:37:30 AM 34.5910 30.0250 116° Southeast 518 596 36,400  Level FlightAware ADS-B
Sat 09:38:07 AM 34.5570 30.1070 117° Southeast 518 596 36,400  Level FlightAware ADS-B
Sat 09:38:43 AM 34.5250 30.1870 116° Southeast 518 596 36,400 -1,147 Level FlightAware ADS-B
Sat 09:39:15 AM 34.4460 30.3000 130° Southeast 512 589 35,100 -1,083 Descending FlightAware ADS-B
Sat 09:39:55 AM 34.3960 30.4040 120° Southeast 513 590 35,100  Level FlightAware ADS-B
Sat 09:40:35 AM 34.3490 30.5040 120° Southeast 513 590 35,100  Level FlightAware ADS-B
Sat 09:41:10 AM 34.3060 30.5930 120° Southeast 514 592 35,100  Level FlightAware ADS-B
Sat 09:41:49 AM 34.2590 30.6920 120° Southeast 516 594 35,100  Level FlightAware ADS-B
Sat 09:42:20 AM 34.2230 30.7670 120° Southeast 516 594 35,100  Level FlightAware ADS-B
Sat 09:42:55 AM 34.1810 30.8540 120° Southeast 517 595 35,100  Level FlightAware ADS-B
Sat 09:43:30 AM 34.1380 30.9430 120° Southeast 517 595 35,100  Level FlightAware ADS-B
Sat 09:44:11 AM 34.0910 31.0420 120° Southeast 516 594 35,100  Level FlightAware ADS-B
Sat 09:44:41 AM 34.0540 31.1180 120° Southeast 516 594 35,100  Level FlightAware ADS-B
Sat 09:45:15 AM 34.0120 31.2050 120° Southeast 516 594 35,100  Level FlightAware ADS-B
Sat 09:45:56 AM 33.9640 31.3040 120° Southeast 516 594 35,100  Level FlightAware ADS-B
Sat 09:46:27 AM 33.9260 31.3800 121° Southeast 515 593 35,100  Level FlightAware ADS-B
Sat 09:47:03 AM 33.8840 31.4670 120° Southeast 516 594 35,100  Level FlightAware ADS-B
Sat 09:47:36 AM 33.8420 31.5530 120° Southeast 516 594 35,100  Level FlightAware ADS-B
Sat 09:48:12 AM 33.7990 31.6420 120° Southeast 516 594 35,100  Level FlightAware ADS-B
Sat 09:48:47 AM 33.7570 31.7280 120° Southeast 516 594 35,100  Level FlightAware ADS-B
Sat 09:49:23 AM 33.7130 31.8170 121° Southeast 515 593 35,100  Level FlightAware ADS-B
Sat 09:49:58 AM 33.6720 31.9000 121° Southeast 515 593 35,100  Level FlightAware ADS-B
Sat 09:50:34 AM 33.6270 31.9900 121° Southeast 513 590 35,100  Level FlightAware ADS-B
Sat 09:51:14 AM 33.5800 32.0850 121° Southeast 512 589 35,100  Level FlightAware ADS-B
Sat 09:51:50 AM 33.5380 32.1700 121° Southeast 511 588 35,100  Level FlightAware ADS-B
Sat 09:52:25 AM 33.4920 32.2630 121° Southeast 511 588 35,100  Level FlightAware ADS-B
Sat 09:53:06 AM 33.4430 32.3620 121° Southeast 511 588 35,100  Level FlightAware ADS-B
Sat 09:53:50 AM 33.3890 32.4690 121° Southeast 511 588 35,100  Level FlightAware ADS-B
Sat 09:54:28 AM 33.3440 32.5590 121° Southeast 511 588 35,100  Level FlightAware ADS-B
Sat 09:55:04 AM 33.3040 32.6390 121° Southeast 510 587 35,100 -456 Level FlightAware ADS-B
Sat 09:55:47 AM 33.2500 32.7450 121° Southeast 490 564 34,500 -1,571 Descending FlightAware ADS-B
Sat 09:56:28 AM 33.2040 32.8350 121° Southeast 484 557 32,900 -2,417 Descending FlightAware ADS-B
Sat 09:56:59 AM 33.1630 32.9150 121° Southeast 484 557 31,600 -2,197 Descending FlightAware ADS-B
Sat 09:57:39 AM 33.1220 32.9970 121° Southeast 476 548 30,300 -2,214 Descending FlightAware ADS-B
Sat 09:58:23 AM 33.0650 33.1070 122° Southeast 464 534 28,500 -2,325 Descending FlightAware ADS-B
Sat 09:58:59 AM 33.0260 33.1840 121° Southeast 455 524 27,200 -1,890 Descending FlightAware ADS-B
Sat 09:59:36 AM 32.9880 33.2470 126° Southeast 445 512 26,200 -1,865 Descending FlightAware ADS-B
Sat 10:00:13 AM 32.9380 33.3320 125° Southeast 425 489 24,900 -1,833 Descending FlightAware ADS-B
Sat 10:00:48 AM 32.9010 33.3930 126° Southeast 416 479 24,000 -1,676 Descending FlightAware ADS-B
Sat 10:01:21 AM 32.8650 33.4570 124° Southeast 407 468 23,000 -1,775 Descending FlightAware ADS-B
Sat 10:01:59 AM 32.8230 33.5290 125° Southeast 415 478 21,900 -1,800 Descending FlightAware ADS-B
Sat 10:02:31 AM 32.7870 33.5910 125° Southeast 418 481 20,900 -1,714 Descending FlightAware ADS-B
Sat 10:03:09 AM 32.7470 33.6600 125° Southeast 403 464 19,900 -1,629 Descending FlightAware ADS-B
Sat 10:03:41 AM 32.7130 33.7180 125° Southeast 393 452 19,000 -1,629 Descending FlightAware ADS-B
Sat 10:04:19 AM 32.6740 33.7830 125° Southeast 379 436 18,000 -1,622 Descending FlightAware ADS-B
Sat 10:04:55 AM 32.6380 33.8450 125° Southeast 367 422 17,000 -1,588 Descending FlightAware ADS-B
Sat 10:05:27 AM 32.6080 33.8960 125° Southeast 357 411 16,200 -1,500 Descending FlightAware ADS-B
Sat 10:06:03 AM 32.5740 33.9530 125° Southeast 346 398 15,300 -1,459 Descending FlightAware ADS-B
Sat 10:06:41 AM 32.5390 34.0130 125° Southeast 341 392 14,400 -1,462 Descending FlightAware ADS-B
Sat 10:07:21 AM 32.5030 34.0730 125° Southeast 346 398 13,400 -1,403 Descending FlightAware ADS-B
Sat 10:07:58 AM 32.4720 34.1250 125° Southeast 348 400 12,600 -1,421 Descending FlightAware ADS-B
Sat 10:08:37 AM 32.4330 34.1910 125° Southeast 335 386 11,600 -1,397 Descending FlightAware ADS-B
Sat 10:09:11 AM 32.4030 34.2390 127° Southeast 320 368 10,900 -1,247 Descending FlightAware ADS-B
Sat 10:09:54 AM 32.3660 34.2970 127° Southeast 302 348 10,000 -1,220 Descending FlightAware ADS-B
Sat 10:10:10 AM 32.3540 34.3170 125° Southeast 299 344 9,700 -1,167 Descending FlightAware ADS-B
Sat 10:10:30 AM 32.3390 34.3450 122° Southeast 293 337 9,300 -1,227 Descending FlightAware ADS-B
Sat 10:10:54 AM 32.3200 34.3770 125° Southeast 290 334 8,800 -1,200 Descending FlightAware ADS-B
Sat 10:11:00 AM 32.3170 34.3830 121° Southeast 288 331 8,700 -1,200 Descending FlightAware ADS-B
Sat 10:11:29 AM 32.2940 34.4220 125° Southeast 283 326 8,100 -1,200 Descending FlightAware ADS-B
Sat 10:11:45 AM 32.2830 34.4400 126° Southeast 281 323 7,800 -1,200 Descending FlightAware ADS-B
Sat 10:12:09 AM 32.2640 34.4700 127° Southeast 277 319 7,300 -1,077 Descending FlightAware ADS-B
Sat 10:12:24 AM 32.2530 34.4890 124° Southeast 281 323 7,100 -581 Descending FlightAware ADS-B
Sat 10:12:40 AM 32.2420 34.5090 123° Southeast 282 325 7,000 -450 Descending FlightAware ADS-B
Sat 10:13:04 AM 32.2300 34.5320 122° Southeast 280 322 6,800 -545 Descending FlightAware ADS-B
Sat 10:13:24 AM 32.2100 34.5680 123° Southeast 278 320 6,600 -750 Descending FlightAware ADS-B
Sat 10:14:16 AM 32.1770 34.6310 122° Southeast 256 295 5,900 -880 Descending FlightAware ADS-B
Sat 10:14:39 AM 32.1630 34.6560 123° Southeast 245 282 5,500 -1,021 Descending FlightAware ADS-B
Sat 10:15:03 AM 32.1490 34.6840 121° Southeast 244 281 5,100 -462 Descending FlightAware ADS-B
Sat 10:15:31 AM 32.1380 34.7040 123° Southeast 241 277 5,100 115 Level FlightAware ADS-B
Sat 10:15:55 AM 32.1180 34.7420 122° Southeast 242 278 5,200 143 Climbing FlightAware ADS-B
Sat 10:16:13 AM 32.1070 34.7620 123° Southeast 242 278 5,200  Level FlightAware ADS-B
Sat 10:16:31 AM 32.0960 34.7820 123° Southeast 242 278 5,200  Level FlightAware ADS-B
Sat 10:16:43 AM 32.0860 34.7950 132° Southeast 241 277 5,200 -581 Level FlightAware ADS-B
Sat 10:17:02 AM 32.0720 34.8100 138° Southeast 234 269 4,900 -811 Descending FlightAware ADS-B
Sat 10:17:20 AM 32.0580 34.8250 138° Southeast 226 260 4,700 -286 Descending FlightAware ADS-B
Sat 10:17:44 AM 32.0410 34.8440 137° Southeast 211 243 4,700  Level FlightAware ADS-B
Sat 10:18:06 AM 32.0260 34.8620 135° Southeast 209 241 4,700 -511 Level FlightAware ADS-B
Sat 10:18:31 AM 32.0080 34.8820 137° Southeast 198 228 4,300 -1,000 Descending FlightAware ADS-B
Sat 10:18:42 AM 32.0030 34.8910 123° Southeast 195 224 4,100 -1,304 Descending FlightAware ADS-B
Sat 10:18:54 AM 32.0000 34.9050 104° East 193 222 3,800 -1,500 Descending FlightAware ADS-B
Sat 10:19:14 AM 32.0040 34.9250 77° East 182 209 3,300 -1,304 Descending FlightAware ADS-B
Sat 10:19:40 AM 32.0080 34.9450 77° East 174 200 2,800 -1,500 Descending FlightAware ADS-B
Sat 10:19:54 AM 32.0120 34.9620 74° East 175 201 2,300 -930 Descending FlightAware ADS-B
Sat 10:20:51 AM 32.0380 34.9820 33° Northeast 164 189 1,700 -789 Descending FlightAware ADS-B
Sat 10:21:10 AM 32.0500 34.9720 325° Northwest 164 189 1,300 -1,286 Descending FlightAware ADS-B
Sat 10:21:19 AM 32.0520 34.9590 280° West 161 185 1,100 -800 Descending FlightAware ADS-B
Sat 10:21:40 AM 32.0520 34.9500 270° West 154 177 900 -245 Descending FlightAware ADS-B
Sat 10:22:08 AM 32.0500 34.9310 263° West 154 177 900  Level FlightAware ADS-B

Login

Don't have an account? Register now (free) for customized features, flight alerts, and more!